<?xml version='1.0' encoding='UTF-8'?><gpx version="1.1" creator="JPX - https://github.com/jenetics/jpx" xmlns="http://www.topografix.com/GPX/1/1"><trk><trkseg><trkpt lat="53.36572134855563" lon="14.664695408706521"><ele>33.0</ele><time>2026-04-12T08:22:27Z</time></trkpt><trkpt lat="53.365686423247084" lon="14.664592348867878"><ele>33.0</ele><time>2026-04-12T08:22:34Z</time></trkpt><trkpt lat="53.3656449907951" lon="14.66449311389906"><ele>33.0</ele><time>2026-04-12T08:22:40Z</time></trkpt><trkpt lat="53.365591188591516" lon="14.664390058802312"><ele>33.0</ele><time>2026-04-12T08:22:45Z</time></trkpt><trkpt lat="53.36556550736787" lon="14.664283637800478"><ele>33.0</ele><time>2026-04-12T08:22:51.999Z</time></trkpt><trkpt lat="53.36553751610403" lon="14.664182414721378"><ele>33.0</ele><time>2026-04-12T08:22:56.999Z</time></trkpt><trkpt lat="53.36550281096732" lon="14.664065810716625"><ele>33.0</ele><time>2026-04-12T08:23:35.998Z</time></trkpt><trkpt lat="53.3654764420015" lon="14.663949632500929"><ele>33.285714285714285</ele><time>2026-04-12T08:23:39.998Z</time></trkpt><trkpt lat="53.36543636566123" lon="14.663841690370134"><ele>33.57142857142857</ele><time>2026-04-12T08:23:44.998Z</time></trkpt><trkpt lat="53.36538741588315" lon="14.66376917967257"><ele>33.85714285714286</ele><time>2026-04-12T08:23:51.998Z</time></trkpt><trkpt lat="53.365318442959676" lon="14.663782443719635"><ele>34.14285714285714</ele><time>2026-04-12T08:23:57.998Z</time></trkpt><trkpt lat="53.365246881057566" lon="14.663817627749136"><ele>34.42857142857143</ele><time>2026-04-12T08:24:04.998Z</time></trkpt><trkpt lat="53.36517734986114" lon="14.663801721556469"><ele>34.714285714285715</ele><time>2026-04-12T08:24:10.998Z</time></trkpt><trkpt lat="53.36511455112432" lon="14.663768709876239"><ele>35.0</ele><time>2026-04-12T08:24:15.998Z</time></trkpt><trkpt lat="53.36504605553011" lon="14.663760515316273"><ele>35.0</ele><time>2026-04-12T08:24:21Z</time></trkpt><trkpt lat="53.364971392511336" lon="14.663734713514035"><ele>35.0</ele><time>2026-04-12T08:24:27Z</time></trkpt><trkpt lat="53.36490959686421" lon="14.663678731028158"><ele>35.0</ele><time>2026-04-12T08:24:35Z</time></trkpt><trkpt lat="53.36485613204837" lon="14.663614670845798"><ele>35.0</ele><time>2026-04-12T08:24:40Z</time></trkpt><trkpt lat="53.36481711888489" lon="14.66351087866628"><ele>35.0</ele><time>2026-04-12T08:24:46Z</time></trkpt><trkpt lat="53.36474711337176" lon="14.663512493468266"><ele>35.0</ele><time>2026-04-12T08:24:51.999Z</time></trkpt><trkpt lat="53.364690129849826" lon="14.663454482915574"><ele>35.0</ele><time>2026-04-12T08:24:58.999Z</time></trkpt><trkpt lat="53.36462681639164" lon="14.663429152507277"><ele>35.714285714285715</ele><time>2026-04-12T08:25:04.999Z</time></trkpt><trkpt lat="53.36456429769823" lon="14.66341613379963"><ele>36.42857142857143</ele><time>2026-04-12T08:25:08.999Z</time></trkpt><trkpt lat="53.3644957401246" lon="14.663432653147087"><ele>37.14285714285714</ele><time>2026-04-12T08:25:14.999Z</time></trkpt><trkpt lat="53.36442348051356" lon="14.663439947209135"><ele>37.85714285714286</ele><time>2026-04-12T08:25:22.999Z</time></trkpt><trkpt lat="53.36436321684708" lon="14.663365650194978"><ele>38.57142857142857</ele><time>2026-04-12T08:25:29.999Z</time></trkpt><trkpt lat="53.36432481466505" lon="14.66327453987784"><ele>39.285714285714285</ele><time>2026-04-12T08:25:35.999Z</time></trkpt><trkpt lat="53.3642614571121" lon="14.663221706091388"><ele>40.0</ele><time>2026-04-12T08:25:42.998Z</time></trkpt><trkpt lat="53.36419805566088" lon="14.663225700670674"><ele>40.0</ele><time>2026-04-12T08:25:49.998Z</time></trkpt><trkpt lat="53.36413186606139" lon="14.663204400645283"><ele>40.0</ele><time>2026-04-12T08:25:56.998Z</time></trkpt><trkpt lat="53.36406253972699" lon="14.663198380370094"><ele>40.0</ele><time>2026-04-12T08:26:05.998Z</time></trkpt><trkpt lat="53.36399720234717" lon="14.663152953418455"><ele>40.0</ele><time>2026-04-12T08:26:14.998Z</time></trkpt><trkpt lat="53.36394606927064" lon="14.663249111287225"><ele>40.0</ele><time>2026-04-12T08:26:20.998Z</time></trkpt><trkpt lat="53.36387548468834" lon="14.66323161790713"><ele>40.0</ele><time>2026-04-12T08:26:27Z</time></trkpt><trkpt lat="53.36380852165346" lon="14.66323815803776"><ele>40.0</ele><time>2026-04-12T08:26:34Z</time></trkpt><trkpt lat="53.36373584513071" lon="14.663213923431618"><ele>41.0</ele><time>2026-04-12T08:26:40Z</time></trkpt><trkpt lat="53.36369097960033" lon="14.663290149430802"><ele>42.0</ele><time>2026-04-12T08:26:49Z</time></trkpt><trkpt lat="53.363628565855336" lon="14.663337269653859"><ele>43.0</ele><time>2026-04-12T08:26:56Z</time></trkpt><trkpt lat="53.363559200644914" lon="14.663337994389664"><ele>44.0</ele><time>2026-04-12T08:27:01.999Z</time></trkpt><trkpt lat="53.3635038810772" lon="14.663404305621729"><ele>45.0</ele><time>2026-04-12T08:27:08.999Z</time></trkpt><trkpt lat="53.363454685514654" lon="14.663475353276034"><ele>46.0</ele><time>2026-04-12T08:27:14.999Z</time></trkpt><trkpt lat="53.36345037426591" lon="14.663595968651055"><ele>47.0</ele><time>2026-04-12T08:27:20.999Z</time></trkpt><trkpt lat="53.363397806704256" lon="14.66366369749154"><ele>47.14285714285714</ele><time>2026-04-12T08:27:27.999Z</time></trkpt><trkpt lat="53.36335993178582" lon="14.663765966129857"><ele>47.285714285714285</ele><time>2026-04-12T08:27:34.999Z</time></trkpt><trkpt lat="53.36331586518421" lon="14.66385466191522"><ele>47.42857142857143</ele><time>2026-04-12T08:27:42.998Z</time></trkpt><trkpt lat="53.3632531237466" lon="14.663902901214776"><ele>47.57142857142857</ele><time>2026-04-12T08:27:50.998Z</time></trkpt><trkpt lat="53.36319315861779" lon="14.663843442388917"><ele>47.714285714285715</ele><time>2026-04-12T08:28:01.998Z</time></trkpt><trkpt lat="53.363153562160505" lon="14.663757545643149"><ele>47.857142857142854</ele><time>2026-04-12T08:28:09.998Z</time></trkpt><trkpt lat="53.36309328537724" lon="14.663683861702406"><ele>48.0</ele><time>2026-04-12T08:28:15.998Z</time></trkpt><trkpt lat="53.36302559316193" lon="14.663658265347983"><ele>49.28571428571428</ele><time>2026-04-12T08:28:27.997Z</time></trkpt><trkpt lat="53.36296604827531" lon="14.663710269417562"><ele>50.57142857142857</ele><time>2026-04-12T08:28:38Z</time></trkpt><trkpt lat="53.3629169796887" lon="14.663796380504719"><ele>51.857142857142854</ele><time>2026-04-12T08:28:50Z</time></trkpt><trkpt lat="53.36284642089177" lon="14.663807138045614"><ele>53.14285714285714</ele><time>2026-04-12T08:28:58Z</time></trkpt><trkpt lat="53.36278333826627" lon="14.663781280100338"><ele>54.42857142857142</ele><time>2026-04-12T08:29:04Z</time></trkpt><trkpt lat="53.36271729341726" lon="14.663778457482875"><ele>55.71428571428571</ele><time>2026-04-12T08:29:09.999Z</time></trkpt><trkpt lat="53.36265329446415" lon="14.663755026312653"><ele>57.0</ele><time>2026-04-12T08:29:15.999Z</time></trkpt><trkpt lat="53.36257721914912" lon="14.663725618555702"><ele>57.0</ele><time>2026-04-12T08:29:22.999Z</time></trkpt><trkpt lat="53.36250940039233" lon="14.66370993167502"><ele>56.99999999999999</ele><time>2026-04-12T08:29:29.999Z</time></trkpt><trkpt lat="53.362445770772325" lon="14.663723680138071"><ele>57.0</ele><time>2026-04-12T08:29:36.999Z</time></trkpt><trkpt lat="53.36237064315928" lon="14.663711802437657"><ele>57.0</ele><time>2026-04-12T08:29:53.998Z</time></trkpt><trkpt lat="53.362303587255276" lon="14.663689578591342"><ele>56.99999999999999</ele><time>2026-04-12T08:29:57.998Z</time></trkpt><trkpt lat="53.362240655762015" lon="14.663669451482617"><ele>57.0</ele><time>2026-04-12T08:30:02.998Z</time></trkpt><trkpt lat="53.36221574107457" lon="14.663569479582664"><ele>57.0</ele><time>2026-04-12T08:30:13.998Z</time></trkpt><trkpt lat="53.36217597616785" lon="14.663471054960976"><ele>57.285714285714285</ele><time>2026-04-12T08:30:19.998Z</time></trkpt><trkpt lat="53.362140568519386" lon="14.663375860593776"><ele>57.57142857142857</ele><time>2026-04-12T08:30:24.998Z</time></trkpt><trkpt lat="53.362088082812306" lon="14.663273638528725"><ele>57.857142857142854</ele><time>2026-04-12T08:30:32.998Z</time></trkpt><trkpt lat="53.36204114574753" lon="14.663190771049972"><ele>58.14285714285714</ele><time>2026-04-12T08:30:39Z</time></trkpt><trkpt lat="53.36198762928595" lon="14.663125049221597"><ele>58.42857142857143</ele><time>2026-04-12T08:30:46Z</time></trkpt><trkpt lat="53.36192337221385" lon="14.663090481671626"><ele>58.71428571428571</ele><time>2026-04-12T08:30:53Z</time></trkpt><trkpt lat="53.361886022248214" lon="14.662991417559626"><ele>59.0</ele><time>2026-04-12T08:31:00Z</time></trkpt><trkpt lat="53.36190308934448" lon="14.662875844943613"><ele>58.71428571428571</ele><time>2026-04-12T08:31:08Z</time></trkpt><trkpt lat="53.36194061285766" lon="14.662768937321523"><ele>58.42857142857143</ele><time>2026-04-12T08:31:14.999Z</time></trkpt><trkpt lat="53.361962645736284" lon="14.662647586562166"><ele>58.14285714285714</ele><time>2026-04-12T08:31:20.999Z</time></trkpt><trkpt lat="53.361959234966584" lon="14.662536378308936"><ele>57.857142857142854</ele><time>2026-04-12T08:31:27.999Z</time></trkpt><trkpt lat="53.361966329445515" lon="14.662429422561717"><ele>57.57142857142857</ele><time>2026-04-12T08:31:34.999Z</time></trkpt><trkpt lat="53.36195958051558" lon="14.662320282125096"><ele>57.285714285714285</ele><time>2026-04-12T08:31:40.999Z</time></trkpt><trkpt lat="53.3619818128058" lon="14.662206091692436"><ele>57.0</ele><time>2026-04-12T08:31:46.999Z</time></trkpt><trkpt lat="53.36196043935245" lon="14.662096738028131"><ele>57.0</ele><time>2026-04-12T08:31:55.999Z</time></trkpt><trkpt lat="53.36194972885333" lon="14.661986494790451"><ele>56.99999999999999</ele><time>2026-04-12T08:32:12.998Z</time></trkpt><trkpt lat="53.361997928093494" lon="14.661889089946113"><ele>57.0</ele><time>2026-04-12T08:32:32.998Z</time></trkpt><trkpt lat="53.3619854204183" lon="14.661784691344417"><ele>57.0</ele><time>2026-04-12T08:32:36.998Z</time></trkpt><trkpt lat="53.36193629723725" lon="14.66171211690255"><ele>56.99999999999999</ele><time>2026-04-12T08:32:40.997Z</time></trkpt><trkpt lat="53.3618720630506" lon="14.661765060179553"><ele>57.0</ele><time>2026-04-12T08:32:53Z</time></trkpt><trkpt lat="53.361856345554024" lon="14.661635625455725"><ele>57.0</ele><time>2026-04-12T08:33:14Z</time></trkpt><trkpt lat="53.36180204261531" lon="14.661576775448037"><ele>55.857142857142854</ele><time>2026-04-12T08:33:23.999Z</time></trkpt><trkpt lat="53.3618169810342" lon="14.661471443852038"><ele>54.71428571428571</ele><time>2026-04-12T08:33:42.999Z</time></trkpt><trkpt lat="53.36183645478731" lon="14.661367816671909"><ele>53.57142857142857</ele><time>2026-04-12T08:33:51.999Z</time></trkpt><trkpt lat="53.36184508690088" lon="14.66126019466318"><ele>52.42857142857143</ele><time>2026-04-12T08:33:57.999Z</time></trkpt><trkpt lat="53.36183985657211" lon="14.661152319215825"><ele>51.285714285714285</ele><time>2026-04-12T08:34:05.998Z</time></trkpt><trkpt lat="53.36185139556122" lon="14.661023312323238"><ele>50.14285714285714</ele><time>2026-04-12T08:34:10.998Z</time></trkpt><trkpt lat="53.361874941929365" lon="14.660912581290434"><ele>49.0</ele><time>2026-04-12T08:34:17.998Z</time></trkpt><trkpt lat="53.36189687062829" lon="14.660797155623953"><ele>48.285714285714285</ele><time>2026-04-12T08:34:25.998Z</time></trkpt><trkpt lat="53.361909328439616" lon="14.660690936052818"><ele>47.57142857142857</ele><time>2026-04-12T08:34:30.998Z</time></trkpt><trkpt lat="53.36191182367227" lon="14.660575825828326"><ele>46.85714285714286</ele><time>2026-04-12T08:34:35.998Z</time></trkpt><trkpt lat="53.361924287857555" lon="14.660452417485972"><ele>46.14285714285714</ele><time>2026-04-12T08:34:40.998Z</time></trkpt><trkpt lat="53.361945537437876" lon="14.660345125769616"><ele>45.42857142857143</ele><time>2026-04-12T08:34:51Z</time></trkpt><trkpt lat="53.36196779084382" lon="14.660243768225982"><ele>44.714285714285715</ele><time>2026-04-12T08:35:00Z</time></trkpt><trkpt lat="53.36196889336109" lon="14.66013347232132"><ele>44.0</ele><time>2026-04-12T08:35:07Z</time></trkpt><trkpt lat="53.361967403941975" lon="14.660018043236873"><ele>44.0</ele><time>2026-04-12T08:35:12Z</time></trkpt><trkpt lat="53.36196432834795" lon="14.65990813171256"><ele>44.0</ele><time>2026-04-12T08:35:16Z</time></trkpt><trkpt lat="53.361958720589705" lon="14.659800363376771"><ele>44.0</ele><time>2026-04-12T08:35:21Z</time></trkpt><trkpt lat="53.36196769728519" lon="14.659686667047756"><ele>44.0</ele><time>2026-04-12T08:35:28.999Z</time></trkpt><trkpt lat="53.36198273948036" lon="14.659570837487768"><ele>44.0</ele><time>2026-04-12T08:35:37.999Z</time></trkpt><trkpt lat="53.36197478110902" lon="14.659448192407119"><ele>44.0</ele><time>2026-04-12T08:35:43.999Z</time></trkpt><trkpt lat="53.361960920661446" lon="14.659339369809057"><ele>44.0</ele><time>2026-04-12T08:35:49.999Z</time></trkpt><trkpt lat="53.36196764770873" lon="14.65922761861434"><ele>44.0</ele><time>2026-04-12T08:35:55.999Z</time></trkpt><trkpt lat="53.36201891766448" lon="14.659147152925616"><ele>44.0</ele><time>2026-04-12T08:36:00.999Z</time></trkpt><trkpt lat="53.362057974538736" lon="14.65899455262467"><ele>44.0</ele><time>2026-04-12T08:36:12.998Z</time></trkpt><trkpt lat="53.36206184496904" lon="14.65887062557417"><ele>44.0</ele><time>2026-04-12T08:36:15.998Z</time></trkpt><trkpt lat="53.362053263320966" lon="14.658753801035674"><ele>44.0</ele><time>2026-04-12T08:36:22.998Z</time></trkpt><trkpt lat="53.36199250874229" lon="14.658649810928539"><ele>44.0</ele><time>2026-04-12T08:36:31.998Z</time></trkpt><trkpt lat="53.361941926682896" lon="14.658573199895264"><ele>45.142857142857146</ele><time>2026-04-12T08:36:37.998Z</time></trkpt><trkpt lat="53.36188408281949" lon="14.658517384570677"><ele>46.285714285714285</ele><time>2026-04-12T08:36:43.998Z</time></trkpt><trkpt lat="53.36183053952713" lon="14.658445768169205"><ele>47.42857142857143</ele><time>2026-04-12T08:36:51.998Z</time></trkpt><trkpt lat="53.36179024555459" lon="14.658356180085816"><ele>48.57142857142857</ele><time>2026-04-12T08:37:00Z</time></trkpt><trkpt lat="53.36172059337883" lon="14.658312419215243"><ele>49.714285714285715</ele><time>2026-04-12T08:37:23Z</time></trkpt><trkpt lat="53.36165182317383" lon="14.658278139774756"><ele>50.857142857142854</ele><time>2026-04-12T08:37:28.999Z</time></trkpt><trkpt lat="53.36159400160286" lon="14.658230355099302"><ele>52.0</ele><time>2026-04-12T08:37:34.999Z</time></trkpt><trkpt lat="53.361528577345766" lon="14.658189249291777"><ele>52.0</ele><time>2026-04-12T08:37:40.999Z</time></trkpt><trkpt lat="53.36146578664435" lon="14.658154957488698"><ele>52.0</ele><time>2026-04-12T08:37:46.999Z</time></trkpt><trkpt lat="53.361395379399625" lon="14.65812954811926"><ele>52.0</ele><time>2026-04-12T08:38:01.999Z</time></trkpt><trkpt lat="53.3613340630241" lon="14.658104748354429"><ele>52.0</ele><time>2026-04-12T08:38:07.999Z</time></trkpt><trkpt lat="53.361268214669316" lon="14.658114938541514"><ele>52.0</ele><time>2026-04-12T08:38:14.998Z</time></trkpt><trkpt lat="53.36120112207223" lon="14.658072251572888"><ele>52.0</ele><time>2026-04-12T08:38:21.998Z</time></trkpt><trkpt lat="53.36113934176728" lon="14.65802620232185"><ele>52.0</ele><time>2026-04-12T08:38:32.998Z</time></trkpt><trkpt lat="53.361063883291514" lon="14.658044973459342"><ele>53.42857142857143</ele><time>2026-04-12T08:38:41.998Z</time></trkpt><trkpt lat="53.360980483982615" lon="14.65801252531591"><ele>54.85714285714286</ele><time>2026-04-12T08:38:49.998Z</time></trkpt><trkpt lat="53.360909246493236" lon="14.657997102346284"><ele>56.28571428571429</ele><time>2026-04-12T08:38:53.998Z</time></trkpt><trkpt lat="53.36086123921027" lon="14.65792090049617"><ele>57.714285714285715</ele><time>2026-04-12T08:38:59.997Z</time></trkpt><trkpt lat="53.36078963920286" lon="14.657906551577948"><ele>59.14285714285715</ele><time>2026-04-12T08:39:10Z</time></trkpt><trkpt lat="53.36074258196052" lon="14.657831925212005"><ele>60.57142857142858</ele><time>2026-04-12T08:39:15Z</time></trkpt><trkpt lat="53.3606771323483" lon="14.657780633757172"><ele>62.0</ele><time>2026-04-12T08:39:24Z</time></trkpt><trkpt lat="53.36061628168898" lon="14.657823652572478"><ele>63.57142857142858</ele><time>2026-04-12T08:39:37.999Z</time></trkpt><trkpt lat="53.36060619955465" lon="14.657711530544521"><ele>65.14285714285715</ele><time>2026-04-12T08:39:57.999Z</time></trkpt><trkpt lat="53.36054038386392" lon="14.657647846571386"><ele>66.71428571428572</ele><time>2026-04-12T08:40:04.999Z</time></trkpt><trkpt lat="53.360488072300114" lon="14.657577979522076"><ele>68.28571428571429</ele><time>2026-04-12T08:40:12.999Z</time></trkpt><trkpt lat="53.36043606466039" lon="14.657512670321204"><ele>69.85714285714286</ele><time>2026-04-12T08:40:18.999Z</time></trkpt><trkpt lat="53.36041894268396" lon="14.657409539107107"><ele>71.42857142857143</ele><time>2026-04-12T08:40:31.998Z</time></trkpt><trkpt lat="53.36041766895441" lon="14.657292793585086"><ele>73.0</ele><time>2026-04-12T08:40:40.998Z</time></trkpt><trkpt lat="53.36036625770979" lon="14.657223368816869"><ele>73.14285714285714</ele><time>2026-04-12T08:40:46.998Z</time></trkpt><trkpt lat="53.36032900560051" lon="14.657132431742133"><ele>73.28571428571429</ele><time>2026-04-12T08:40:53.998Z</time></trkpt><trkpt lat="53.36031332585754" lon="14.65700659947144"><ele>73.42857142857143</ele><time>2026-04-12T08:41:02.998Z</time></trkpt><trkpt lat="53.360341668202274" lon="14.65690608013868"><ele>73.57142857142857</ele><time>2026-04-12T08:41:12Z</time></trkpt><trkpt lat="53.36036454606303" lon="14.656780748656123"><ele>73.71428571428571</ele><time>2026-04-12T08:41:20Z</time></trkpt><trkpt lat="53.360370661069304" lon="14.65667532233338"><ele>73.85714285714286</ele><time>2026-04-12T08:41:25Z</time></trkpt><trkpt lat="53.360369409980954" lon="14.656554161566435"><ele>74.0</ele><time>2026-04-12T08:41:29Z</time></trkpt><trkpt lat="53.36038058995675" lon="14.65644559083283"><ele>74.71428571428572</ele><time>2026-04-12T08:41:40Z</time></trkpt><trkpt lat="53.36041794807919" lon="14.656350821808893"><ele>75.42857142857143</ele><time>2026-04-12T08:42:08.999Z</time></trkpt><trkpt lat="53.360458506786294" lon="14.656238738042422"><ele>76.14285714285714</ele><time>2026-04-12T08:42:16.999Z</time></trkpt><trkpt lat="53.360473784181345" lon="14.656129416757032"><ele>76.85714285714286</ele><time>2026-04-12T08:42:24.999Z</time></trkpt><trkpt lat="53.360455882557176" lon="14.656009697460645"><ele>77.57142857142857</ele><time>2026-04-12T08:42:34.998Z</time></trkpt><trkpt lat="53.36048921026019" lon="14.655885326805386"><ele>78.28571428571429</ele><time>2026-04-12T08:42:42.998Z</time></trkpt><trkpt lat="53.36049517623664" lon="14.655778666535745"><ele>79.0</ele><time>2026-04-12T08:42:49.998Z</time></trkpt><trkpt lat="53.36050500824598" lon="14.655659761855592"><ele>79.57142857142858</ele><time>2026-04-12T08:42:56.998Z</time></trkpt><trkpt lat="53.3605227492661" lon="14.65555749495391"><ele>80.14285714285714</ele><time>2026-04-12T08:43:01.998Z</time></trkpt><trkpt lat="53.36057332836665" lon="14.655485944612618"><ele>80.71428571428572</ele><time>2026-04-12T08:43:09.997Z</time></trkpt><trkpt lat="53.360638191044394" lon="14.655392609427354"><ele>81.28571428571429</ele><time>2026-04-12T08:43:17Z</time></trkpt><trkpt lat="53.36068489313549" lon="14.655301825879567"><ele>81.85714285714286</ele><time>2026-04-12T08:43:24Z</time></trkpt><trkpt lat="53.36067662411687" lon="14.655190801901488"><ele>82.42857142857143</ele><time>2026-04-12T08:43:33Z</time></trkpt><trkpt lat="53.36064464765257" lon="14.655089481187098"><ele>83.0</ele><time>2026-04-12T08:43:41Z</time></trkpt><trkpt lat="53.36061823965185" lon="14.654989904057127"><ele>84.0</ele><time>2026-04-12T08:43:48Z</time></trkpt><trkpt lat="53.36057029651842" lon="14.65490291133005"><ele>85.0</ele><time>2026-04-12T08:43:53.999Z</time></trkpt><trkpt lat="53.36055333668217" lon="14.654745838023524"><ele>86.0</ele><time>2026-04-12T08:44:12.999Z</time></trkpt><trkpt lat="53.36053548987615" lon="14.65464387339584"><ele>87.0</ele><time>2026-04-12T08:44:17.999Z</time></trkpt><trkpt lat="53.360536093575924" lon="14.65453580832888"><ele>88.0</ele><time>2026-04-12T08:44:23.999Z</time></trkpt><trkpt lat="53.36051252940093" lon="14.654426145878109"><ele>89.0</ele><time>2026-04-12T08:44:29.999Z</time></trkpt><trkpt lat="53.360505643691106" lon="14.654311151613749"><ele>90.0</ele><time>2026-04-12T08:44:35.998Z</time></trkpt><trkpt lat="53.36050380923943" lon="14.654204582432866"><ele>90.57142857142857</ele><time>2026-04-12T08:44:42.998Z</time></trkpt><trkpt lat="53.36052425814925" lon="14.654104667973117"><ele>91.14285714285715</ele><time>2026-04-12T08:44:49.998Z</time></trkpt><trkpt lat="53.36052740614658" lon="14.65399906196904"><ele>91.71428571428572</ele><time>2026-04-12T08:44:57.998Z</time></trkpt><trkpt lat="53.36052362066896" lon="14.653891230813956"><ele>92.28571428571428</ele><time>2026-04-12T08:45:01.998Z</time></trkpt><trkpt lat="53.36052720329794" lon="14.653776611579149"><ele>92.85714285714286</ele><time>2026-04-12T08:45:08.998Z</time></trkpt><trkpt lat="53.360540941733426" lon="14.65366347748123"><ele>93.42857142857143</ele><time>2026-04-12T08:45:16.997Z</time></trkpt><trkpt lat="53.36053044531096" lon="14.653549552286567"><ele>94.0</ele><time>2026-04-12T08:45:25Z</time></trkpt><trkpt lat="53.36054221008661" lon="14.653441770556629"><ele>94.57142857142857</ele><time>2026-04-12T08:45:31Z</time></trkpt><trkpt lat="53.36058077769274" lon="14.653322086710007"><ele>95.14285714285714</ele><time>2026-04-12T08:45:37Z</time></trkpt><trkpt lat="53.36054544925218" lon="14.653217063873784"><ele>95.71428571428572</ele><time>2026-04-12T08:45:53Z</time></trkpt><trkpt lat="53.36053151964944" lon="14.653098337353311"><ele>96.28571428571428</ele><time>2026-04-12T08:45:58.999Z</time></trkpt><trkpt lat="53.36053918313345" lon="14.652980321611007"><ele>96.85714285714286</ele><time>2026-04-12T08:46:04.999Z</time></trkpt><trkpt lat="53.36055038612202" lon="14.652857097942332"><ele>97.42857142857143</ele><time>2026-04-12T08:46:10.999Z</time></trkpt><trkpt lat="53.3604954842541" lon="14.652796229678914"><ele>98.0</ele><time>2026-04-12T08:46:19.999Z</time></trkpt><trkpt lat="53.36042775626496" lon="14.652823593755503"><ele>98.0</ele><time>2026-04-12T08:46:27.999Z</time></trkpt><trkpt lat="53.36036392444515" lon="14.652856434234085"><ele>98.0</ele><time>2026-04-12T08:46:34.999Z</time></trkpt><trkpt lat="53.36029943044225" lon="14.65287372266969"><ele>98.0</ele><time>2026-04-12T08:46:42.998Z</time></trkpt><trkpt lat="53.36023504465049" lon="14.652876356121851"><ele>98.0</ele><time>2026-04-12T08:46:49.998Z</time></trkpt><trkpt lat="53.360161704443506" lon="14.652869952350548"><ele>98.0</ele><time>2026-04-12T08:46:57.998Z</time></trkpt><trkpt lat="53.36009351113223" lon="14.652851270191446"><ele>98.0</ele><time>2026-04-12T08:47:04.998Z</time></trkpt><trkpt lat="53.36002932215341" lon="14.652886965605811"><ele>98.0</ele><time>2026-04-12T08:47:10.998Z</time></trkpt><trkpt lat="53.35995706527659" lon="14.652900496455738"><ele>98.0</ele><time>2026-04-12T08:47:17.998Z</time></trkpt><trkpt lat="53.35988224265529" lon="14.652889189977884"><ele>98.0</ele><time>2026-04-12T08:47:24.997Z</time></trkpt><trkpt lat="53.35983712704408" lon="14.652807181815277"><ele>98.0</ele><time>2026-04-12T08:47:31Z</time></trkpt><trkpt lat="53.35978290239826" lon="14.652741692590622"><ele>98.0</ele><time>2026-04-12T08:47:37Z</time></trkpt><trkpt lat="53.35973133662685" lon="14.652650214908544"><ele>98.0</ele><time>2026-04-12T08:47:42Z</time></trkpt><trkpt lat="53.3596759165667" lon="14.652583544339057"><ele>98.0</ele><time>2026-04-12T08:47:48Z</time></trkpt><trkpt lat="53.35961513746762" lon="14.652540378609032"><ele>98.0</ele><time>2026-04-12T08:47:53.999Z</time></trkpt><trkpt lat="53.359563643512985" lon="14.65246379570616"><ele>99.42857142857143</ele><time>2026-04-12T08:47:59.999Z</time></trkpt><trkpt lat="53.35953071891359" lon="14.652370756692427"><ele>100.85714285714286</ele><time>2026-04-12T08:48:04.999Z</time></trkpt><trkpt lat="53.35951103379183" lon="14.652246243303928"><ele>102.28571428571428</ele><time>2026-04-12T08:48:09.999Z</time></trkpt><trkpt lat="53.35949394634064" lon="14.652143934043536"><ele>103.71428571428572</ele><time>2026-04-12T08:48:14.999Z</time></trkpt><trkpt lat="53.35948023093704" lon="14.652026301188446"><ele>105.14285714285714</ele><time>2026-04-12T08:48:20.999Z</time></trkpt><trkpt lat="53.35941637459413" lon="14.651976300055708"><ele>106.57142857142857</ele><time>2026-04-12T08:48:27.999Z</time></trkpt><trkpt lat="53.35935633996606" lon="14.651923582790147"><ele>108.0</ele><time>2026-04-12T08:48:35.999Z</time></trkpt><trkpt lat="53.35930890359044" lon="14.651846920484935"><ele>108.0</ele><time>2026-04-12T08:48:44.998Z</time></trkpt><trkpt lat="53.35923728727092" lon="14.651817194843309"><ele>108.0</ele><time>2026-04-12T08:48:51.998Z</time></trkpt><trkpt lat="53.359168245241094" lon="14.651834716095612"><ele>108.0</ele><time>2026-04-12T08:48:58.998Z</time></trkpt><trkpt lat="53.35911254902705" lon="14.651907194641558"><ele>108.0</ele><time>2026-04-12T08:49:07.998Z</time></trkpt><trkpt lat="53.359059297327974" lon="14.651965311598572"><ele>108.0</ele><time>2026-04-12T08:49:14.998Z</time></trkpt><trkpt lat="53.35899137870695" lon="14.651967246858096"><ele>108.0</ele><time>2026-04-12T08:49:20.998Z</time></trkpt><trkpt lat="53.35892569206123" lon="14.651918599393976"><ele>108.0</ele><time>2026-04-12T08:49:28.997Z</time></trkpt><trkpt lat="53.35885910623896" lon="14.651884342567344"><ele>109.28571428571428</ele><time>2026-04-12T08:49:35Z</time></trkpt><trkpt lat="53.35879588885842" lon="14.651843896905714"><ele>110.57142857142857</ele><time>2026-04-12T08:49:41Z</time></trkpt><trkpt lat="53.35872987187127" lon="14.651804565668012"><ele>111.85714285714286</ele><time>2026-04-12T08:49:48Z</time></trkpt><trkpt lat="53.3586638028275" lon="14.651761179602204"><ele>113.14285714285714</ele><time>2026-04-12T08:49:57Z</time></trkpt><trkpt lat="53.358602748810355" lon="14.651715641197129"><ele>114.42857142857144</ele><time>2026-04-12T08:50:10.999Z</time></trkpt><trkpt lat="53.358530840498865" lon="14.651680263037916"><ele>115.71428571428572</ele><time>2026-04-12T08:50:17.999Z</time></trkpt><trkpt lat="53.3584738989224" lon="14.651628652077923"><ele>117.0</ele><time>2026-04-12T08:50:23.999Z</time></trkpt><trkpt lat="53.35840757100605" lon="14.651568740908218"><ele>117.0</ele><time>2026-04-12T08:50:30.999Z</time></trkpt><trkpt lat="53.35834059895535" lon="14.651525918033851"><ele>117.00000000000001</ele><time>2026-04-12T08:50:36.999Z</time></trkpt><trkpt lat="53.35827717537186" lon="14.651480139560558"><ele>117.0</ele><time>2026-04-12T08:50:42.999Z</time></trkpt><trkpt lat="53.35822042331353" lon="14.651418576423609"><ele>117.0</ele><time>2026-04-12T08:50:49.999Z</time></trkpt><trkpt lat="53.35816823430737" lon="14.651352304689684"><ele>117.00000000000001</ele><time>2026-04-12T08:50:55.998Z</time></trkpt><trkpt lat="53.358111082001486" lon="14.651287617185307"><ele>117.0</ele><time>2026-04-12T08:51:01.998Z</time></trkpt><trkpt lat="53.35805421203331" lon="14.65122258739361"><ele>117.0</ele><time>2026-04-12T08:51:07.998Z</time></trkpt><trkpt lat="53.35800146207962" lon="14.651161297884364"><ele>117.0</ele><time>2026-04-12T08:51:13.998Z</time></trkpt><trkpt lat="53.35793977721925" lon="14.651099445637016"><ele>117.00000000000001</ele><time>2026-04-12T08:51:20.998Z</time></trkpt><trkpt lat="53.3578733768353" lon="14.651080866246541"><ele>117.0</ele><time>2026-04-12T08:51:26.998Z</time></trkpt><trkpt lat="53.3578042484219" lon="14.651081970614355"><ele>117.0</ele><time>2026-04-12T08:51:32.998Z</time></trkpt><trkpt lat="53.35773602310425" lon="14.6511139920182"><ele>117.00000000000001</ele><time>2026-04-12T08:51:40Z</time></trkpt><trkpt lat="53.35767037338024" lon="14.651128578595486"><ele>117.0</ele><time>2026-04-12T08:51:49Z</time></trkpt><trkpt lat="53.35760166644024" lon="14.651158896024265"><ele>117.0</ele><time>2026-04-12T08:51:58Z</time></trkpt><trkpt lat="53.357535564875974" lon="14.651182058756298"><ele>117.0</ele><time>2026-04-12T08:52:05Z</time></trkpt><trkpt lat="53.357464717664634" lon="14.65120068762163"><ele>117.00000000000001</ele><time>2026-04-12T08:52:12Z</time></trkpt><trkpt lat="53.35739709493343" lon="14.651198014266305"><ele>117.0</ele><time>2026-04-12T08:52:16.999Z</time></trkpt><trkpt lat="53.3573346574944" lon="14.651219103221377"><ele>117.0</ele><time>2026-04-12T08:52:21.999Z</time></trkpt><trkpt lat="53.35725964467193" lon="14.651232440291771"><ele>117.00000000000001</ele><time>2026-04-12T08:52:26.999Z</time></trkpt><trkpt lat="53.35720191200482" lon="14.651186456863547"><ele>117.0</ele><time>2026-04-12T08:52:33.999Z</time></trkpt><trkpt lat="53.35715075721907" lon="14.651123883103207"><ele>117.0</ele><time>2026-04-12T08:52:39.999Z</time></trkpt><trkpt lat="53.35709024208681" lon="14.651033263407355"><ele>116.85714285714286</ele><time>2026-04-12T08:52:45.999Z</time></trkpt><trkpt lat="53.35704447886063" lon="14.65094663432534"><ele>116.71428571428572</ele><time>2026-04-12T08:52:51.999Z</time></trkpt><trkpt lat="53.356970227848656" lon="14.650938042061549"><ele>116.57142857142858</ele><time>2026-04-12T08:52:57.999Z</time></trkpt><trkpt lat="53.356898184823486" lon="14.650934374101691"><ele>116.42857142857144</ele><time>2026-04-12T08:53:05.998Z</time></trkpt><trkpt lat="53.356855173793605" lon="14.650840626793062"><ele>116.28571428571429</ele><time>2026-04-12T08:53:13.998Z</time></trkpt><trkpt lat="53.35679858170169" lon="14.650784222069172"><ele>116.14285714285717</ele><time>2026-04-12T08:53:19.998Z</time></trkpt><trkpt lat="53.35674737402866" lon="14.65070383715989"><ele>116.00000000000001</ele><time>2026-04-12T08:53:26.998Z</time></trkpt><trkpt lat="53.356693674278915" lon="14.650636111368948"><ele>116.00000000000001</ele><time>2026-04-12T08:53:31.998Z</time></trkpt><trkpt lat="53.35662858599391" lon="14.65063478421389"><ele>116.0</ele><time>2026-04-12T08:53:37.998Z</time></trkpt><trkpt lat="53.35657460453336" lon="14.650575997386884"><ele>116.00000000000001</ele><time>2026-04-12T08:54:21Z</time></trkpt><trkpt lat="53.356509885092876" lon="14.650533785744663"><ele>116.00000000000001</ele><time>2026-04-12T08:54:26.999Z</time></trkpt><trkpt lat="53.35643968675982" lon="14.650507031719322"><ele>116.0</ele><time>2026-04-12T08:54:33.999Z</time></trkpt><trkpt lat="53.35638393897873" lon="14.65045212022188"><ele>116.00000000000001</ele><time>2026-04-12T08:54:39.999Z</time></trkpt><trkpt lat="53.35631692243354" lon="14.650412883550016"><ele>116.00000000000001</ele><time>2026-04-12T08:54:47.999Z</time></trkpt><trkpt lat="53.356258535206535" lon="14.650369222653504"><ele>116.00000000000001</ele><time>2026-04-12T08:54:53.999Z</time></trkpt><trkpt lat="53.35619492559689" lon="14.650332034016497"><ele>116.0</ele><time>2026-04-12T08:55:00.999Z</time></trkpt><trkpt lat="53.35613259472571" lon="14.65025242013951"><ele>116.00000000000001</ele><time>2026-04-12T08:55:07.998Z</time></trkpt><trkpt lat="53.356073237398284" lon="14.650203185828296"><ele>116.00000000000001</ele><time>2026-04-12T08:55:13.998Z</time></trkpt><trkpt lat="53.356035384398055" lon="14.650097485311319"><ele>116.0</ele><time>2026-04-12T08:55:19.998Z</time></trkpt><trkpt lat="53.35598872522288" lon="14.650015639885648"><ele>116.00000000000001</ele><time>2026-04-12T08:55:26.998Z</time></trkpt><trkpt lat="53.355940231946605" lon="14.649934295843156"><ele>116.00000000000001</ele><time>2026-04-12T08:55:32.998Z</time></trkpt><trkpt lat="53.35587813158847" lon="14.649892275246279"><ele>117.2857142857143</ele><time>2026-04-12T08:55:37.998Z</time></trkpt><trkpt lat="53.355823592980194" lon="14.64983135588734"><ele>118.57142857142858</ele><time>2026-04-12T08:55:43.998Z</time></trkpt><trkpt lat="53.35576437906932" lon="14.649756293369279"><ele>119.85714285714286</ele><time>2026-04-12T08:55:50Z</time></trkpt><trkpt lat="53.355708725012576" lon="14.649681572584115"><ele>121.14285714285715</ele><time>2026-04-12T08:56:00Z</time></trkpt><trkpt lat="53.35565703275847" lon="14.649609409089996"><ele>122.42857142857144</ele><time>2026-04-12T08:56:11Z</time></trkpt><trkpt lat="53.355586327765906" lon="14.64952874744082"><ele>123.71428571428571</ele><time>2026-04-12T08:56:27.999Z</time></trkpt><trkpt lat="53.35553649169199" lon="14.649460208469922"><ele>125.0</ele><time>2026-04-12T08:56:39.999Z</time></trkpt><trkpt lat="53.355475659122085" lon="14.649404141091109"><ele>126.85714285714286</ele><time>2026-04-12T08:56:50.999Z</time></trkpt><trkpt lat="53.35541258918955" lon="14.649389648118898"><ele>128.71428571428572</ele><time>2026-04-12T08:57:03.999Z</time></trkpt><trkpt lat="53.35535531952073" lon="14.649339134511505"><ele>130.57142857142858</ele><time>2026-04-12T08:57:12.998Z</time></trkpt><trkpt lat="53.35528991130054" lon="14.649285824228645"><ele>132.42857142857144</ele><time>2026-04-12T08:57:22.998Z</time></trkpt><trkpt lat="53.35519887317464" lon="14.649330594209745"><ele>134.2857142857143</ele><time>2026-04-12T08:57:31.998Z</time></trkpt><trkpt lat="53.355133280585974" lon="14.649312419170206"><ele>136.14285714285714</ele><time>2026-04-12T08:57:39.998Z</time></trkpt><trkpt lat="53.35506716758821" lon="14.649263947986524"><ele>138.0</ele><time>2026-04-12T08:57:45.998Z</time></trkpt><trkpt lat="53.35499100435221" lon="14.649256352080188"><ele>138.0</ele><time>2026-04-12T08:57:53.998Z</time></trkpt><trkpt lat="53.35492860369916" lon="14.649294137948955"><ele>138.0</ele><time>2026-04-12T08:58:01Z</time></trkpt><trkpt lat="53.354862423296005" lon="14.649311708533839"><ele>138.0</ele><time>2026-04-12T08:58:07Z</time></trkpt><trkpt lat="53.35479703526639" lon="14.649352798971918"><ele>138.0</ele><time>2026-04-12T08:58:12Z</time></trkpt><trkpt lat="53.35474093203733" lon="14.64940852910957"><ele>138.0</ele><time>2026-04-12T08:58:18Z</time></trkpt><trkpt lat="53.354672306533395" lon="14.649407354566891"><ele>138.0</ele><time>2026-04-12T08:58:23Z</time></trkpt><trkpt lat="53.35461029661636" lon="14.649385998858088"><ele>138.0</ele><time>2026-04-12T08:58:29.999Z</time></trkpt><trkpt lat="53.354539645772654" lon="14.649367799287807"><ele>137.83333333333334</ele><time>2026-04-12T08:58:35.999Z</time></trkpt><trkpt lat="53.354459905155586" lon="14.649350114567103"><ele>137.66666666666666</ele><time>2026-04-12T08:58:44.999Z</time></trkpt><trkpt lat="53.354390167902885" lon="14.649327840170791"><ele>137.5</ele><time>2026-04-12T08:58:49.999Z</time></trkpt><trkpt lat="53.354307904548584" lon="14.649357623634604"><ele>137.33333333333331</ele><time>2026-04-12T08:58:57.999Z</time></trkpt><trkpt lat="53.35423826876805" lon="14.64933414758333"><ele>137.16666666666666</ele><time>2026-04-12T08:59:05.999Z</time></trkpt><trkpt lat="53.35417141053823" lon="14.649261455209523"><ele>137.0</ele><time>2026-04-12T08:59:14.998Z</time></trkpt><trkpt lat="53.354106077826195" lon="14.649206458280744"><ele>137.00000000000003</ele><time>2026-04-12T08:59:21.998Z</time></trkpt><trkpt lat="53.35403328084097" lon="14.649171280610686"><ele>137.0</ele><time>2026-04-12T08:59:28.998Z</time></trkpt><trkpt lat="53.35396809162426" lon="14.64911913282743"><ele>137.0</ele><time>2026-04-12T08:59:35.998Z</time></trkpt><trkpt lat="53.35390108736172" lon="14.649062517052716"><ele>137.0</ele><time>2026-04-12T08:59:42.998Z</time></trkpt><trkpt lat="53.353826660321666" lon="14.649052656478794"><ele>137.0</ele><time>2026-04-12T08:59:46.998Z</time></trkpt><trkpt lat="53.35377488818426" lon="14.648983225195355"><ele>137.00000000000003</ele><time>2026-04-12T08:59:51.998Z</time></trkpt><trkpt lat="53.35370981910086" lon="14.648939519629112"><ele>137.0</ele><time>2026-04-12T09:00:00.998Z</time></trkpt><trkpt lat="53.35365440698381" lon="14.64886339716083"><ele>136.57142857142858</ele><time>2026-04-12T09:00:07Z</time></trkpt><trkpt lat="53.353604167639936" lon="14.648771512753234"><ele>136.14285714285714</ele><time>2026-04-12T09:00:13Z</time></trkpt><trkpt lat="53.35355071806742" lon="14.648681528547753"><ele>135.71428571428572</ele><time>2026-04-12T09:00:19Z</time></trkpt><trkpt lat="53.35349556077584" lon="14.648603640840522"><ele>135.28571428571428</ele><time>2026-04-12T09:00:24Z</time></trkpt><trkpt lat="53.35344755804921" lon="14.648528153756526"><ele>134.85714285714286</ele><time>2026-04-12T09:00:29Z</time></trkpt><trkpt lat="53.353388932946594" lon="14.648472651150723"><ele>134.42857142857144</ele><time>2026-04-12T09:00:34Z</time></trkpt><trkpt lat="53.35332730586058" lon="14.648407515603546"><ele>134.0</ele><time>2026-04-12T09:00:38.999Z</time></trkpt><trkpt lat="53.353254370163185" lon="14.64837351211283"><ele>134.0</ele><time>2026-04-12T09:00:45.999Z</time></trkpt><trkpt lat="53.35319711783056" lon="14.648314455843874"><ele>134.0</ele><time>2026-04-12T09:00:50.999Z</time></trkpt><trkpt lat="53.35313066290183" lon="14.648238975577625"><ele>134.0</ele><time>2026-04-12T09:00:58.999Z</time></trkpt><trkpt lat="53.353077454826334" lon="14.648148481533145"><ele>134.0</ele><time>2026-04-12T09:01:03.999Z</time></trkpt><trkpt lat="53.35302940088897" lon="14.648063231601457"><ele>134.0</ele><time>2026-04-12T09:01:08.999Z</time></trkpt><trkpt lat="53.35297861307425" lon="14.64800028332881"><ele>134.0</ele><time>2026-04-12T09:01:13.999Z</time></trkpt><trkpt lat="53.35291046025316" lon="14.647961601590703"><ele>134.0</ele><time>2026-04-12T09:01:19.999Z</time></trkpt><trkpt lat="53.352848406166174" lon="14.647909209473573"><ele>133.71428571428572</ele><time>2026-04-12T09:01:23.998Z</time></trkpt><trkpt lat="53.35277914141156" lon="14.647933355572158"><ele>133.42857142857142</ele><time>2026-04-12T09:01:29.998Z</time></trkpt><trkpt lat="53.35271262741013" lon="14.647960779178282"><ele>133.14285714285714</ele><time>2026-04-12T09:01:41.998Z</time></trkpt><trkpt lat="53.35264820203634" lon="14.64797281447054"><ele>132.85714285714286</ele><time>2026-04-12T09:01:48.998Z</time></trkpt><trkpt lat="53.35257921248105" lon="14.648025151759489"><ele>132.57142857142858</ele><time>2026-04-12T09:01:55.998Z</time></trkpt><trkpt lat="53.352521853118034" lon="14.648094003516292"><ele>132.28571428571428</ele><time>2026-04-12T09:02:02.998Z</time></trkpt><trkpt lat="53.35247184513601" lon="14.64817141127006"><ele>132.0</ele><time>2026-04-12T09:02:10Z</time></trkpt><trkpt lat="53.35240915300709" lon="14.648233467277233"><ele>132.0</ele><time>2026-04-12T09:02:15Z</time></trkpt><trkpt lat="53.35233832855223" lon="14.648251088259732"><ele>132.0</ele><time>2026-04-12T09:02:19Z</time></trkpt><trkpt lat="53.352269135014645" lon="14.648284398484314"><ele>132.0</ele><time>2026-04-12T09:02:23Z</time></trkpt><trkpt lat="53.352200679000354" lon="14.648311465560004"><ele>132.0</ele><time>2026-04-12T09:02:30Z</time></trkpt><trkpt lat="53.352122564085555" lon="14.648345809893124"><ele>132.0</ele><time>2026-04-12T09:02:37Z</time></trkpt><trkpt lat="53.35206114757462" lon="14.648394791437783"><ele>132.0</ele><time>2026-04-12T09:02:41Z</time></trkpt><trkpt lat="53.3520044768787" lon="14.648445765554033"><ele>132.0</ele><time>2026-04-12T09:02:47.999Z</time></trkpt><trkpt lat="53.35195159606157" lon="14.648507481570473"><ele>132.71428571428572</ele><time>2026-04-12T09:02:53.999Z</time></trkpt><trkpt lat="53.351892602471956" lon="14.64857970872812"><ele>133.42857142857144</ele><time>2026-04-12T09:03:00.999Z</time></trkpt><trkpt lat="53.35182813235073" lon="14.648608547196332"><ele>134.14285714285717</ele><time>2026-04-12T09:03:06.999Z</time></trkpt><trkpt lat="53.351740561549214" lon="14.648637698190567"><ele>134.85714285714286</ele><time>2026-04-12T09:03:13.999Z</time></trkpt><trkpt lat="53.351683185312226" lon="14.648684119038412"><ele>135.57142857142858</ele><time>2026-04-12T09:03:19.999Z</time></trkpt><trkpt lat="53.35163045667439" lon="14.648749233445233"><ele>136.2857142857143</ele><time>2026-04-12T09:03:24.999Z</time></trkpt><trkpt lat="53.351575984076696" lon="14.648816955653567"><ele>137.0</ele><time>2026-04-12T09:03:29.999Z</time></trkpt><trkpt lat="53.35151331756199" lon="14.648869633930877"><ele>137.00000000000003</ele><time>2026-04-12T09:03:35.998Z</time></trkpt><trkpt lat="53.35145092398892" lon="14.648905561106625"><ele>137.0</ele><time>2026-04-12T09:03:41.998Z</time></trkpt><trkpt lat="53.351397422540046" lon="14.648967724932733"><ele>137.0</ele><time>2026-04-12T09:03:53.998Z</time></trkpt><trkpt lat="53.35135492782972" lon="14.64905183642918"><ele>137.0</ele><time>2026-04-12T09:04:00.998Z</time></trkpt><trkpt lat="53.35129511068873" lon="14.649103381527938"><ele>137.0</ele><time>2026-04-12T09:04:08.998Z</time></trkpt><trkpt lat="53.35122972561255" lon="14.649055986601335"><ele>137.00000000000003</ele><time>2026-04-12T09:04:16Z</time></trkpt><trkpt lat="53.35116380127224" lon="14.649024951804913"><ele>137.0</ele><time>2026-04-12T09:04:22Z</time></trkpt><trkpt lat="53.35110492497494" lon="14.648963990116526"><ele>137.14285714285717</ele><time>2026-04-12T09:04:28Z</time></trkpt><trkpt lat="53.35104312687693" lon="14.64889923252913"><ele>137.28571428571428</ele><time>2026-04-12T09:04:34Z</time></trkpt><trkpt lat="53.35098507171271" lon="14.64884985284427"><ele>137.42857142857144</ele><time>2026-04-12T09:04:39Z</time></trkpt><trkpt lat="53.350940129998335" lon="14.648753458529326"><ele>137.57142857142858</ele><time>2026-04-12T09:04:45Z</time></trkpt><trkpt lat="53.350884065085594" lon="14.648659739911876"><ele>137.71428571428572</ele><time>2026-04-12T09:04:53Z</time></trkpt><trkpt lat="53.35082185173898" lon="14.648596498269994"><ele>137.85714285714286</ele><time>2026-04-12T09:04:57.999Z</time></trkpt><trkpt lat="53.35076180863507" lon="14.648529863207667"><ele>138.0</ele><time>2026-04-12T09:05:03.999Z</time></trkpt><trkpt lat="53.35069670647146" lon="14.6484722414467"><ele>138.14285714285714</ele><time>2026-04-12T09:05:09.999Z</time></trkpt><trkpt lat="53.35064345002492" lon="14.64841510791933"><ele>138.2857142857143</ele><time>2026-04-12T09:05:14.999Z</time></trkpt><trkpt lat="53.35060132420761" lon="14.648325565205466"><ele>138.42857142857144</ele><time>2026-04-12T09:05:21.999Z</time></trkpt><trkpt lat="53.35054457576241" lon="14.64825695021443"><ele>138.57142857142858</ele><time>2026-04-12T09:05:27.999Z</time></trkpt><trkpt lat="53.35048450279144" lon="14.648190025250141"><ele>138.71428571428572</ele><time>2026-04-12T09:05:33.999Z</time></trkpt><trkpt lat="53.35042940574507" lon="14.64813800478677"><ele>138.85714285714286</ele><time>2026-04-12T09:05:39.998Z</time></trkpt><trkpt lat="53.35037229153012" lon="14.648074549499862"><ele>139.0</ele><time>2026-04-12T09:05:45.998Z</time></trkpt><trkpt lat="53.350321933473396" lon="14.647998790766952"><ele>138.57142857142856</ele><time>2026-04-12T09:05:52.998Z</time></trkpt><trkpt lat="53.350289890746204" lon="14.647897933656026"><ele>138.14285714285714</ele><time>2026-04-12T09:05:58.998Z</time></trkpt><trkpt lat="53.35025327937391" lon="14.647782540426725"><ele>137.71428571428572</ele><time>2026-04-12T09:06:02.998Z</time></trkpt><trkpt lat="53.35022162035026" lon="14.647673198874084"><ele>137.28571428571428</ele><time>2026-04-12T09:06:06.998Z</time></trkpt><trkpt lat="53.35018385663627" lon="14.647577718755437"><ele>136.85714285714286</ele><time>2026-04-12T09:06:12.998Z</time></trkpt><trkpt lat="53.350143959298464" lon="14.6474675513248"><ele>136.42857142857142</ele><time>2026-04-12T09:06:17.998Z</time></trkpt><trkpt lat="53.35013683076901" lon="14.647337664013138"><ele>136.0</ele><time>2026-04-12T09:06:29Z</time></trkpt><trkpt lat="53.3501176786991" lon="14.647225939132476"><ele>135.99999999999997</ele><time>2026-04-12T09:06:34Z</time></trkpt><trkpt lat="53.35009885620785" lon="14.647120227986763"><ele>136.0</ele><time>2026-04-12T09:06:39Z</time></trkpt><trkpt lat="53.35011971882353" lon="14.647009609474685"><ele>136.0</ele><time>2026-04-12T09:06:43Z</time></trkpt><trkpt lat="53.350115907291354" lon="14.646901376094954"><ele>136.0</ele><time>2026-04-12T09:06:50Z</time></trkpt><trkpt lat="53.35010531079365" lon="14.646765243466954"><ele>136.0</ele><time>2026-04-12T09:06:54.999Z</time></trkpt><trkpt lat="53.35005598921538" lon="14.646662693023481"><ele>135.99999999999997</ele><time>2026-04-12T09:07:02.999Z</time></trkpt><trkpt lat="53.34998710055613" lon="14.646580728766114"><ele>136.0</ele><time>2026-04-12T09:07:07.999Z</time></trkpt><trkpt lat="53.34992906021833" lon="14.646509144853136"><ele>135.99999999999997</ele><time>2026-04-12T09:07:13.999Z</time></trkpt><trkpt lat="53.34988466753345" lon="14.646397462084773"><ele>136.0</ele><time>2026-04-12T09:07:19.999Z</time></trkpt><trkpt lat="53.34982053845443" lon="14.646384366583424"><ele>136.0</ele><time>2026-04-12T09:07:23.999Z</time></trkpt><trkpt lat="53.34975811691879" lon="14.64640923215837"><ele>136.0</ele><time>2026-04-12T09:07:27.999Z</time></trkpt><trkpt lat="53.349697707740724" lon="14.646443818727418"><ele>136.0</ele><time>2026-04-12T09:07:31.999Z</time></trkpt><trkpt lat="53.349628057370516" lon="14.646436610024681"><ele>135.99999999999997</ele><time>2026-04-12T09:07:36.999Z</time></trkpt><trkpt lat="53.349552715166894" lon="14.646479172570706"><ele>136.0</ele><time>2026-04-12T09:07:43.998Z</time></trkpt><trkpt lat="53.34950776271224" lon="14.64655450668651"><ele>136.42857142857142</ele><time>2026-04-12T09:07:47.998Z</time></trkpt><trkpt lat="53.34944829190113" lon="14.646617130598845"><ele>136.85714285714286</ele><time>2026-04-12T09:07:53.998Z</time></trkpt><trkpt lat="53.349377293855504" lon="14.646675773253776"><ele>137.28571428571428</ele><time>2026-04-12T09:07:59.998Z</time></trkpt><trkpt lat="53.349325163182975" lon="14.646740062519324"><ele>137.71428571428572</ele><time>2026-04-12T09:08:02.998Z</time></trkpt><trkpt lat="53.349277606618" lon="14.646812226040199"><ele>138.14285714285714</ele><time>2026-04-12T09:08:07.998Z</time></trkpt><trkpt lat="53.34921219363021" lon="14.646860039183382"><ele>138.57142857142856</ele><time>2026-04-12T09:08:16.998Z</time></trkpt><trkpt lat="53.349149441474125" lon="14.646890794213995"><ele>139.0</ele><time>2026-04-12T09:08:22.998Z</time></trkpt><trkpt lat="53.349084172011906" lon="14.646906719336993"><ele>139.0</ele><time>2026-04-12T09:08:28Z</time></trkpt><trkpt lat="53.3490183297322" lon="14.646912422308734"><ele>139.0</ele><time>2026-04-12T09:08:37Z</time></trkpt><trkpt lat="53.34895365387199" lon="14.646911735260172"><ele>139.0</ele><time>2026-04-12T09:08:45Z</time></trkpt><trkpt lat="53.34888170027753" lon="14.64690479346318"><ele>139.0</ele><time>2026-04-12T09:08:54Z</time></trkpt><trkpt lat="53.3488188094449" lon="14.646898912534182"><ele>139.0</ele><time>2026-04-12T09:09:02Z</time></trkpt><trkpt lat="53.34873924803759" lon="14.646893677116198"><ele>139.0</ele><time>2026-04-12T09:09:16.999Z</time></trkpt><trkpt lat="53.34867379381986" lon="14.64689101070312"><ele>139.0</ele><time>2026-04-12T09:09:24.999Z</time></trkpt><trkpt lat="53.34860121439032" lon="14.646829239689861"><ele>138.71428571428572</ele><time>2026-04-12T09:10:39Z</time></trkpt><trkpt lat="53.348528201214634" lon="14.64683995625819"><ele>138.42857142857144</ele><time>2026-04-12T09:12:51Z</time></trkpt><trkpt lat="53.34845773227541" lon="14.64685678738875"><ele>138.14285714285717</ele><time>2026-04-12T09:13:00Z</time></trkpt><trkpt lat="53.348398949473044" lon="14.646904911929141"><ele>137.85714285714286</ele><time>2026-04-12T09:13:07Z</time></trkpt><trkpt lat="53.34832773204282" lon="14.646911663501767"><ele>137.57142857142858</ele><time>2026-04-12T09:13:13.999Z</time></trkpt><trkpt lat="53.34825808163879" lon="14.646917201138722"><ele>137.2857142857143</ele><time>2026-04-12T09:13:20.999Z</time></trkpt><trkpt lat="53.348182459599556" lon="14.646922347986601"><ele>137.0</ele><time>2026-04-12T09:13:27.999Z</time></trkpt><trkpt lat="53.34811555673354" lon="14.646926273983636"><ele>137.00000000000003</ele><time>2026-04-12T09:13:33.999Z</time></trkpt><trkpt lat="53.34805036131682" lon="14.646927779778864"><ele>137.0</ele><time>2026-04-12T09:13:40.999Z</time></trkpt><trkpt lat="53.347975262693275" lon="14.6469279916537"><ele>137.0</ele><time>2026-04-12T09:13:45.999Z</time></trkpt><trkpt lat="53.34790532515081" lon="14.646925147851663"><ele>137.0</ele><time>2026-04-12T09:13:59.998Z</time></trkpt><trkpt lat="53.34784244575219" lon="14.646918893581802"><ele>137.0</ele><time>2026-04-12T09:14:08.998Z</time></trkpt><trkpt lat="53.347767388578866" lon="14.646906967230876"><ele>137.00000000000003</ele><time>2026-04-12T09:14:15.998Z</time></trkpt><trkpt lat="53.34769468553538" lon="14.64689086809309"><ele>137.0</ele><time>2026-04-12T09:14:22.998Z</time></trkpt><trkpt lat="53.34760934126042" lon="14.646883979123738"><ele>136.42857142857144</ele><time>2026-04-12T09:14:28.998Z</time></trkpt><trkpt lat="53.34753876651941" lon="14.646865908253035"><ele>135.85714285714286</ele><time>2026-04-12T09:14:37.998Z</time></trkpt><trkpt lat="53.34745689107299" lon="14.646842742536025"><ele>135.28571428571428</ele><time>2026-04-12T09:15:12Z</time></trkpt><trkpt lat="53.347393524882094" lon="14.646823610485274"><ele>134.71428571428572</ele><time>2026-04-12T09:15:16Z</time></trkpt><trkpt lat="53.347330863270386" lon="14.646806377035789"><ele>134.14285714285714</ele><time>2026-04-12T09:15:21.999Z</time></trkpt><trkpt lat="53.34725239100899" lon="14.64680178533931"><ele>133.57142857142858</ele><time>2026-04-12T09:15:26.999Z</time></trkpt><trkpt lat="53.34718274585361" lon="14.646805659004828"><ele>133.0</ele><time>2026-04-12T09:15:33.999Z</time></trkpt><trkpt lat="53.347116861779604" lon="14.646813782102955"><ele>133.0</ele><time>2026-04-12T09:15:40.999Z</time></trkpt><trkpt lat="53.3470526149137" lon="14.646828897620546"><ele>133.0</ele><time>2026-04-12T09:15:46.999Z</time></trkpt><trkpt lat="53.34698456963697" lon="14.646848681214394"><ele>133.0</ele><time>2026-04-12T09:15:51.999Z</time></trkpt><trkpt lat="53.346915776989505" lon="14.646873903448627"><ele>133.0</ele><time>2026-04-12T09:15:58.999Z</time></trkpt><trkpt lat="53.34685077863178" lon="14.646901652701256"><ele>133.0</ele><time>2026-04-12T09:16:08.998Z</time></trkpt><trkpt lat="53.34678176995573" lon="14.646933845737706"><ele>133.0</ele><time>2026-04-12T09:16:16.998Z</time></trkpt><trkpt lat="53.3467182122288" lon="14.646975926662684"><ele>133.0</ele><time>2026-04-12T09:16:22.998Z</time></trkpt><trkpt lat="53.346652567453916" lon="14.647001102416414"><ele>133.42857142857142</ele><time>2026-04-12T09:16:28.998Z</time></trkpt><trkpt lat="53.34659360062869" lon="14.647039607920345"><ele>133.85714285714286</ele><time>2026-04-12T09:16:34.998Z</time></trkpt><trkpt lat="53.34653016158753" lon="14.647085713515315"><ele>134.28571428571428</ele><time>2026-04-12T09:16:41.998Z</time></trkpt><trkpt lat="53.346470313667844" lon="14.64714356298247"><ele>134.71428571428572</ele><time>2026-04-12T09:16:48.998Z</time></trkpt><trkpt lat="53.34640019218787" lon="14.647177089931832"><ele>135.14285714285714</ele><time>2026-04-12T09:16:56Z</time></trkpt><trkpt lat="53.34633298069039" lon="14.64721987329862"><ele>135.57142857142856</ele><time>2026-04-12T09:17:03Z</time></trkpt><trkpt lat="53.34626667084464" lon="14.647258158204084"><ele>136.0</ele><time>2026-04-12T09:17:10Z</time></trkpt><trkpt lat="53.34618291001124" lon="14.64730271190348"><ele>136.42857142857142</ele><time>2026-04-12T09:17:17Z</time></trkpt><trkpt lat="53.34610238478801" lon="14.647329178069164"><ele>136.85714285714286</ele><time>2026-04-12T09:17:24Z</time></trkpt><trkpt lat="53.34603716442577" lon="14.647361535243489"><ele>137.28571428571428</ele><time>2026-04-12T09:17:30.999Z</time></trkpt><trkpt lat="53.34597361623912" lon="14.64737902840803"><ele>137.71428571428572</ele><time>2026-04-12T09:17:35.999Z</time></trkpt><trkpt lat="53.345908148674354" lon="14.647395152294823"><ele>138.14285714285714</ele><time>2026-04-12T09:17:40.999Z</time></trkpt><trkpt lat="53.34584141155626" lon="14.647409393748879"><ele>138.57142857142856</ele><time>2026-04-12T09:17:47.999Z</time></trkpt><trkpt lat="53.34577355958288" lon="14.647421164996418"><ele>139.0</ele><time>2026-04-12T09:17:55.999Z</time></trkpt><trkpt lat="53.34570965869473" lon="14.64743086475285"><ele>139.0</ele><time>2026-04-12T09:18:04.999Z</time></trkpt><trkpt lat="53.34563641980199" lon="14.647435615725987"><ele>139.0</ele><time>2026-04-12T09:18:13.998Z</time></trkpt><trkpt lat="53.345572864463335" lon="14.64743170345358"><ele>139.0</ele><time>2026-04-12T09:18:18.998Z</time></trkpt><trkpt lat="53.34550439537027" lon="14.647432811042961"><ele>139.0</ele><time>2026-04-12T09:18:24.998Z</time></trkpt><trkpt lat="53.34543649982149" lon="14.647424287085679"><ele>139.0</ele><time>2026-04-12T09:18:30.998Z</time></trkpt><trkpt lat="53.34536693419112" lon="14.647407468211219"><ele>139.0</ele><time>2026-04-12T09:18:36.998Z</time></trkpt><trkpt lat="53.345300690620796" lon="14.647390539787267"><ele>139.0</ele><time>2026-04-12T09:18:43.998Z</time></trkpt><trkpt lat="53.345231174671405" lon="14.647374482157767"><ele>138.42857142857142</ele><time>2026-04-12T09:18:47.998Z</time></trkpt><trkpt lat="53.345164528130425" lon="14.647376414647914"><ele>137.85714285714286</ele><time>2026-04-12T09:18:58Z</time></trkpt><trkpt lat="53.34509571371553" lon="14.64738460955466"><ele>137.28571428571428</ele><time>2026-04-12T09:19:05Z</time></trkpt><trkpt lat="53.34503203822034" lon="14.647385074993444"><ele>136.71428571428572</ele><time>2026-04-12T09:19:13Z</time></trkpt><trkpt lat="53.34496846864568" lon="14.647415263326394"><ele>136.14285714285714</ele><time>2026-04-12T09:19:20Z</time></trkpt><trkpt lat="53.344908688860166" lon="14.647453982458368"><ele>135.57142857142856</ele><time>2026-04-12T09:19:26Z</time></trkpt><trkpt lat="53.344840877248075" lon="14.647505467927983"><ele>135.0</ele><time>2026-04-12T09:19:33Z</time></trkpt><trkpt lat="53.34476850041269" lon="14.647567688027546"><ele>134.71428571428572</ele><time>2026-04-12T09:19:39.999Z</time></trkpt><trkpt lat="53.34471064146851" lon="14.647620848748167"><ele>134.42857142857142</ele><time>2026-04-12T09:19:48.999Z</time></trkpt><trkpt lat="53.34465508586819" lon="14.647683752949739"><ele>134.14285714285714</ele><time>2026-04-12T09:19:53.999Z</time></trkpt><trkpt lat="53.34459622073807" lon="14.647729874727524"><ele>133.85714285714286</ele><time>2026-04-12T09:20:01.999Z</time></trkpt><trkpt lat="53.34454010671994" lon="14.647784074621836"><ele>133.57142857142856</ele><time>2026-04-12T09:20:07.999Z</time></trkpt><trkpt lat="53.344484514340245" lon="14.647835604550613"><ele>133.28571428571428</ele><time>2026-04-12T09:20:13.999Z</time></trkpt><trkpt lat="53.34442380653209" lon="14.647892858964072"><ele>133.0</ele><time>2026-04-12T09:20:19.999Z</time></trkpt><trkpt lat="53.344363789677885" lon="14.647963727628829"><ele>133.0</ele><time>2026-04-12T09:20:27.998Z</time></trkpt><trkpt lat="53.34431067028705" lon="14.648038058313125"><ele>133.0</ele><time>2026-04-12T09:20:35.998Z</time></trkpt><trkpt lat="53.34425608453609" lon="14.648092729807837"><ele>133.0</ele><time>2026-04-12T09:20:45.998Z</time></trkpt><trkpt lat="53.34418653774548" lon="14.648043197517831"><ele>133.0</ele><time>2026-04-12T09:20:53.998Z</time></trkpt><trkpt lat="53.34413180991488" lon="14.647982203124455"><ele>133.0</ele><time>2026-04-12T09:20:58.998Z</time></trkpt><trkpt lat="53.34405903663204" lon="14.647981863165652"><ele>133.0</ele><time>2026-04-12T09:21:06Z</time></trkpt><trkpt lat="53.34399444216396" lon="14.64794016121109"><ele>133.0</ele><time>2026-04-12T09:21:21Z</time></trkpt><trkpt lat="53.343965143713085" lon="14.647839076713813"><ele>132.42857142857142</ele><time>2026-04-12T09:21:28Z</time></trkpt><trkpt lat="53.3439111262614" lon="14.647720444781408"><ele>131.85714285714286</ele><time>2026-04-12T09:21:41.999Z</time></trkpt><trkpt lat="53.34387744436827" lon="14.647624843143884"><ele>131.28571428571428</ele><time>2026-04-12T09:21:49.999Z</time></trkpt><trkpt lat="53.34384142689848" lon="14.647523447854462"><ele>130.71428571428572</ele><time>2026-04-12T09:21:55.999Z</time></trkpt><trkpt lat="53.34380189819811" lon="14.647418690588033"><ele>130.14285714285714</ele><time>2026-04-12T09:22:05.999Z</time></trkpt><trkpt lat="53.343762710587214" lon="14.647324579262623"><ele>129.57142857142856</ele><time>2026-04-12T09:22:35.998Z</time></trkpt><trkpt lat="53.34372239169527" lon="14.647238793554767"><ele>129.0</ele><time>2026-04-12T09:22:38.998Z</time></trkpt><trkpt lat="53.34369070381615" lon="14.647122359461937"><ele>128.7142857142857</ele><time>2026-04-12T09:22:42.998Z</time></trkpt><trkpt lat="53.34368538886964" lon="14.647005545018468"><ele>128.42857142857142</ele><time>2026-04-12T09:22:54.998Z</time></trkpt><trkpt lat="53.34364467244017" lon="14.646924510834223"><ele>128.14285714285714</ele><time>2026-04-12T09:23:02.998Z</time></trkpt><trkpt lat="53.343588605539196" lon="14.64685007723381"><ele>127.85714285714285</ele><time>2026-04-12T09:23:11Z</time></trkpt><trkpt lat="53.34352230211717" lon="14.646797436865352"><ele>127.57142857142856</ele><time>2026-04-12T09:23:21Z</time></trkpt><trkpt lat="53.34345062056054" lon="14.646738033095025"><ele>127.28571428571429</ele><time>2026-04-12T09:23:29Z</time></trkpt><trkpt lat="53.34337932880759" lon="14.646702865446203"><ele>127.0</ele><time>2026-04-12T09:23:48.999Z</time></trkpt><trkpt lat="53.34331741992315" lon="14.646673413602189"><ele>128.0</ele><time>2026-04-12T09:24:06.999Z</time></trkpt><trkpt lat="53.34324485531894" lon="14.64664044803244"><ele>129.0</ele><time>2026-04-12T09:24:20.999Z</time></trkpt><trkpt lat="53.34318443802465" lon="14.646610292055561"><ele>130.0</ele><time>2026-04-12T09:24:29.998Z</time></trkpt><trkpt lat="53.343110860412814" lon="14.64657104941523"><ele>131.0</ele><time>2026-04-12T09:24:35.998Z</time></trkpt><trkpt lat="53.34304779074783" lon="14.646532388726344"><ele>132.0</ele><time>2026-04-12T09:24:41.998Z</time></trkpt><trkpt lat="53.34298895938322" lon="14.646486554250513"><ele>133.0</ele><time>2026-04-12T09:25:24Z</time></trkpt><trkpt lat="53.342934757807676" lon="14.646431815835683"><ele>134.0</ele><time>2026-04-12T09:25:31Z</time></trkpt><trkpt lat="53.34287737083256" lon="14.646358773940966"><ele>134.0</ele><time>2026-04-12T09:25:39Z</time></trkpt><trkpt lat="53.34282934439576" lon="14.646284444621896"><ele>134.0</ele><time>2026-04-12T09:25:45Z</time></trkpt><trkpt lat="53.34277902072036" lon="14.646193199896384"><ele>134.0</ele><time>2026-04-12T09:25:50Z</time></trkpt><trkpt lat="53.3427321776331" lon="14.646098861900288"><ele>134.0</ele><time>2026-04-12T09:25:57.999Z</time></trkpt><trkpt lat="53.342682726958365" lon="14.645987392290726"><ele>134.0</ele><time>2026-04-12T09:26:05.999Z</time></trkpt><trkpt lat="53.34264576273636" lon="14.645898741666583"><ele>134.0</ele><time>2026-04-12T09:26:12.999Z</time></trkpt><trkpt lat="53.34260702357331" lon="14.645810410476635"><ele>134.0</ele><time>2026-04-12T09:26:20.999Z</time></trkpt><trkpt lat="53.34255633298306" lon="14.64570527913898"><ele>135.28571428571428</ele><time>2026-04-12T09:26:28.999Z</time></trkpt><trkpt lat="53.342520438300326" lon="14.64561785840174"><ele>136.57142857142856</ele><time>2026-04-12T09:26:33.999Z</time></trkpt><trkpt lat="53.34248249963931" lon="14.64552241486633"><ele>137.85714285714283</ele><time>2026-04-12T09:26:38.998Z</time></trkpt><trkpt lat="53.34244852816713" lon="14.645417348886939"><ele>139.14285714285714</ele><time>2026-04-12T09:26:47.998Z</time></trkpt><trkpt lat="53.34241905996463" lon="14.64531058838285"><ele>140.42857142857142</ele><time>2026-04-12T09:26:55.998Z</time></trkpt><trkpt lat="53.34239325362063" lon="14.64521366777014"><ele>141.7142857142857</ele><time>2026-04-12T09:27:03.998Z</time></trkpt><trkpt lat="53.34236124169247" lon="14.645104339610995"><ele>143.0</ele><time>2026-04-12T09:27:10.998Z</time></trkpt><trkpt lat="53.34232244751263" lon="14.645000437841011"><ele>143.42857142857142</ele><time>2026-04-12T09:27:16.998Z</time></trkpt><trkpt lat="53.34227914387708" lon="14.644923306149586"><ele>143.85714285714286</ele><time>2026-04-12T09:27:22Z</time></trkpt><trkpt lat="53.34222595319418" lon="14.644861113585653"><ele>144.28571428571428</ele><time>2026-04-12T09:27:27Z</time></trkpt><trkpt lat="53.34217184283295" lon="14.644805425029672"><ele>144.71428571428572</ele><time>2026-04-12T09:27:33Z</time></trkpt><trkpt lat="53.34210653570173" lon="14.644768869360792"><ele>145.14285714285714</ele><time>2026-04-12T09:27:40Z</time></trkpt><trkpt lat="53.3420296159708" lon="14.644734679700916"><ele>145.57142857142856</ele><time>2026-04-12T09:27:46Z</time></trkpt><trkpt lat="53.341953326808294" lon="14.64470678947066"><ele>146.0</ele><time>2026-04-12T09:27:53.999Z</time></trkpt><trkpt lat="53.341892000222245" lon="14.644665247852528"><ele>146.33333333333331</ele><time>2026-04-12T09:27:59.999Z</time></trkpt><trkpt lat="53.341822738568546" lon="14.644609742909745"><ele>146.66666666666666</ele><time>2026-04-12T09:28:05.999Z</time></trkpt><trkpt lat="53.34176167886068" lon="14.644553448539007"><ele>147.0</ele><time>2026-04-12T09:28:12.999Z</time></trkpt><trkpt lat="53.341699499623076" lon="14.644492154340044"><ele>147.33333333333334</ele><time>2026-04-12T09:28:18.999Z</time></trkpt><trkpt lat="53.34162729095644" lon="14.644408477277612"><ele>147.66666666666669</ele><time>2026-04-12T09:28:23.999Z</time></trkpt><trkpt lat="53.34156770527963" lon="14.644325354631379"><ele>148.0</ele><time>2026-04-12T09:28:30.999Z</time></trkpt><trkpt lat="53.34152094052591" lon="14.644241684551693"><ele>148.28571428571428</ele><time>2026-04-12T09:28:35.999Z</time></trkpt><trkpt lat="53.34148264194877" lon="14.64415448584093"><ele>148.57142857142856</ele><time>2026-04-12T09:28:39.998Z</time></trkpt><trkpt lat="53.34145393106842" lon="14.644054107393108"><ele>148.85714285714283</ele><time>2026-04-12T09:28:45.998Z</time></trkpt><trkpt lat="53.34142148223992" lon="14.643941565215801"><ele>149.14285714285714</ele><time>2026-04-12T09:28:50.998Z</time></trkpt><trkpt lat="53.34140268813535" lon="14.643837909445603"><ele>149.42857142857142</ele><time>2026-04-12T09:28:56.998Z</time></trkpt><trkpt lat="53.34138356672711" lon="14.643732601759865"><ele>149.7142857142857</ele><time>2026-04-12T09:29:03.998Z</time></trkpt><trkpt lat="53.34135910106141" lon="14.643623952210303"><ele>150.0</ele><time>2026-04-12T09:29:11.998Z</time></trkpt><trkpt lat="53.341336047702754" lon="14.643509820730499"><ele>150.85714285714283</ele><time>2026-04-12T09:29:19.998Z</time></trkpt><trkpt lat="53.3413199981464" lon="14.643376475755103"><ele>151.71428571428572</ele><time>2026-04-12T09:29:28Z</time></trkpt><trkpt lat="53.34129223193714" lon="14.643278152732762"><ele>152.57142857142856</ele><time>2026-04-12T09:29:33Z</time></trkpt><trkpt lat="53.34126784654429" lon="14.64313965083466"><ele>153.42857142857142</ele><time>2026-04-12T09:29:41Z</time></trkpt><trkpt lat="53.34123044645366" lon="14.64305393942858"><ele>154.28571428571428</ele><time>2026-04-12T09:29:43Z</time></trkpt><trkpt lat="53.341176787154396" lon="14.642986343112561"><ele>155.14285714285714</ele><time>2026-04-12T09:29:47Z</time></trkpt><trkpt lat="53.341109286605544" lon="14.642957874378078"><ele>156.0</ele><time>2026-04-12T09:29:51Z</time></trkpt><trkpt lat="53.34103099442226" lon="14.64295848234937"><ele>156.0</ele><time>2026-04-12T09:29:55Z</time></trkpt><trkpt lat="53.34097592580658" lon="14.642887954761092"><ele>156.0</ele><time>2026-04-12T09:30:00.999Z</time></trkpt><trkpt lat="53.340923379450544" lon="14.642815054678918"><ele>156.0</ele><time>2026-04-12T09:30:10.999Z</time></trkpt><trkpt lat="53.3408593195687" lon="14.642756565495741"><ele>156.0</ele><time>2026-04-12T09:30:17.999Z</time></trkpt><trkpt lat="53.34079559097127" lon="14.642695522809888"><ele>156.0</ele><time>2026-04-12T09:30:25.999Z</time></trkpt><trkpt lat="53.340731257081195" lon="14.642651363381487"><ele>156.0</ele><time>2026-04-12T09:30:32.999Z</time></trkpt><trkpt lat="53.340659635116445" lon="14.642618782901954"><ele>156.0</ele><time>2026-04-12T09:30:39.999Z</time></trkpt><trkpt lat="53.34058763296408" lon="14.642596697977964"><ele>156.71428571428572</ele><time>2026-04-12T09:30:45.998Z</time></trkpt><trkpt lat="53.340506459069736" lon="14.642580782379046"><ele>157.42857142857142</ele><time>2026-04-12T09:30:53.998Z</time></trkpt><trkpt lat="53.34043390035798" lon="14.642568146404694"><ele>158.14285714285714</ele><time>2026-04-12T09:31:00.998Z</time></trkpt><trkpt lat="53.340369911475506" lon="14.64255730435992"><ele>158.85714285714286</ele><time>2026-04-12T09:31:06.998Z</time></trkpt><trkpt lat="53.340307280764215" lon="14.642530459170684"><ele>159.57142857142856</ele><time>2026-04-12T09:31:13.998Z</time></trkpt><trkpt lat="53.34022824786692" lon="14.642509528285775"><ele>160.28571428571428</ele><time>2026-04-12T09:31:34Z</time></trkpt><trkpt lat="53.34016612877562" lon="14.642484847010993"><ele>161.0</ele><time>2026-04-12T09:31:40Z</time></trkpt><trkpt lat="53.34010521833921" lon="14.642450156725987"><ele>161.0</ele><time>2026-04-12T09:31:47Z</time></trkpt><trkpt lat="53.34003432616216" lon="14.642422422690073"><ele>161.0</ele><time>2026-04-12T09:31:55Z</time></trkpt><trkpt lat="53.339971655764636" lon="14.64237583294328"><ele>161.0</ele><time>2026-04-12T09:32:00.999Z</time></trkpt><trkpt lat="53.33990773315177" lon="14.642322993354616"><ele>161.0</ele><time>2026-04-12T09:32:06.999Z</time></trkpt><trkpt lat="53.33984802075452" lon="14.64227093415717"><ele>161.0</ele><time>2026-04-12T09:32:11.999Z</time></trkpt><trkpt lat="53.339790890813006" lon="14.6422160718582"><ele>161.0</ele><time>2026-04-12T09:32:17.999Z</time></trkpt><trkpt lat="53.33973240887627" lon="14.642157476750942"><ele>161.0</ele><time>2026-04-12T09:32:23.999Z</time></trkpt><trkpt lat="53.33967450098313" lon="14.642097159316513"><ele>161.28571428571428</ele><time>2026-04-12T09:32:31.999Z</time></trkpt><trkpt lat="53.33961034657452" lon="14.642026235485014"><ele>161.57142857142856</ele><time>2026-04-12T09:32:37.999Z</time></trkpt><trkpt lat="53.339558923379855" lon="14.6419475626641"><ele>161.85714285714286</ele><time>2026-04-12T09:32:41.999Z</time></trkpt><trkpt lat="53.339504008922646" lon="14.641878507604636"><ele>162.14285714285714</ele><time>2026-04-12T09:32:45.999Z</time></trkpt><trkpt lat="53.339448040591705" lon="14.64180295460937"><ele>162.42857142857142</ele><time>2026-04-12T09:32:51.998Z</time></trkpt><trkpt lat="53.339392421649755" lon="14.641722913030712"><ele>162.71428571428572</ele><time>2026-04-12T09:32:56.998Z</time></trkpt><trkpt lat="53.33933754622408" lon="14.641639661209885"><ele>163.0</ele><time>2026-04-12T09:33:03.998Z</time></trkpt><trkpt lat="53.33928433373481" lon="14.641556833358417"><ele>163.0</ele><time>2026-04-12T09:33:09.998Z</time></trkpt><trkpt lat="53.33932479130972" lon="14.641640588439213"><ele>163.0</ele><time>2026-04-12T09:33:25.998Z</time></trkpt><trkpt lat="53.339297430280986" lon="14.641752332906268"><ele>163.0</ele><time>2026-04-12T09:33:38Z</time></trkpt><trkpt lat="53.33924862910267" lon="14.64182870639213"><ele>163.0</ele><time>2026-04-12T09:33:41Z</time></trkpt><trkpt lat="53.339209734944426" lon="14.64191594255136"><ele>163.0</ele><time>2026-04-12T09:33:45Z</time></trkpt><trkpt lat="53.3391541357053" lon="14.641977689773329"><ele>163.0</ele><time>2026-04-12T09:33:52Z</time></trkpt><trkpt lat="53.33911174542929" lon="14.642069115858215"><ele>163.0</ele><time>2026-04-12T09:33:57Z</time></trkpt><trkpt lat="53.33906465674702" lon="14.642154917117034"><ele>163.0</ele><time>2026-04-12T09:34:02Z</time></trkpt><trkpt lat="53.33902197242176" lon="14.642236056327844"><ele>163.0</ele><time>2026-04-12T09:34:06Z</time></trkpt><trkpt lat="53.338978224296234" lon="14.64234210350101"><ele>163.0</ele><time>2026-04-12T09:34:11Z</time></trkpt><trkpt lat="53.338959624182685" lon="14.64245499427377"><ele>163.0</ele><time>2026-04-12T09:34:15.999Z</time></trkpt><trkpt lat="53.338958297227784" lon="14.642588206325502"><ele>163.0</ele><time>2026-04-12T09:34:21.999Z</time></trkpt><trkpt lat="53.33902365382148" lon="14.642563835756862"><ele>163.0</ele><time>2026-04-12T09:34:27.999Z</time></trkpt><trkpt lat="53.33907977858887" lon="14.642613241592718"><ele>163.0</ele><time>2026-04-12T09:34:39.999Z</time></trkpt><trkpt lat="53.339097702829505" lon="14.642738026264178"><ele>162.57142857142858</ele><time>2026-04-12T09:34:43.999Z</time></trkpt><trkpt lat="53.339110621575585" lon="14.642843693294184"><ele>162.14285714285714</ele><time>2026-04-12T09:34:48.999Z</time></trkpt><trkpt lat="53.33912478825708" lon="14.642961064905906"><ele>161.71428571428572</ele><time>2026-04-12T09:34:52.999Z</time></trkpt><trkpt lat="53.33913468143593" lon="14.643067217384814"><ele>161.28571428571428</ele><time>2026-04-12T09:34:58.999Z</time></trkpt><trkpt lat="53.33915067423974" lon="14.6431777990116"><ele>160.85714285714286</ele><time>2026-04-12T09:35:04.998Z</time></trkpt><trkpt lat="53.33916667078587" lon="14.643300869850258"><ele>160.42857142857142</ele><time>2026-04-12T09:35:11.998Z</time></trkpt><trkpt lat="53.33918040834818" lon="14.643457229115166"><ele>160.0</ele><time>2026-04-12T09:35:24.998Z</time></trkpt><trkpt lat="53.33918301058587" lon="14.643577263583746"><ele>159.28571428571428</ele><time>2026-04-12T09:35:30.998Z</time></trkpt><trkpt lat="53.33917575433986" lon="14.64368551511966"><ele>158.57142857142858</ele><time>2026-04-12T09:35:35.998Z</time></trkpt><trkpt lat="53.33915743243014" lon="14.64380273719095"><ele>157.85714285714286</ele><time>2026-04-12T09:35:43Z</time></trkpt><trkpt lat="53.339129186201475" lon="14.643922848209673"><ele>157.14285714285714</ele><time>2026-04-12T09:35:50Z</time></trkpt><trkpt lat="53.33910512097299" lon="14.644041579865775"><ele>156.42857142857142</ele><time>2026-04-12T09:35:58Z</time></trkpt><trkpt lat="53.33907579544841" lon="14.644145415835638"><ele>155.71428571428572</ele><time>2026-04-12T09:36:04Z</time></trkpt><trkpt lat="53.33904503557668" lon="14.644253396476742"><ele>155.0</ele><time>2026-04-12T09:36:12Z</time></trkpt><trkpt lat="53.33902062833439" lon="14.644369573282724"><ele>154.28571428571428</ele><time>2026-04-12T09:36:18Z</time></trkpt><trkpt lat="53.33900851025007" lon="14.644508945622592"><ele>153.57142857142856</ele><time>2026-04-12T09:36:26.999Z</time></trkpt><trkpt lat="53.33895397332761" lon="14.644573516910095"><ele>152.85714285714283</ele><time>2026-04-12T09:36:34.999Z</time></trkpt><trkpt lat="53.33888324242326" lon="14.644625141642933"><ele>152.14285714285714</ele><time>2026-04-12T09:36:37.999Z</time></trkpt><trkpt lat="53.33881453748201" lon="14.644635671768905"><ele>151.42857142857142</ele><time>2026-04-12T09:36:40.999Z</time></trkpt><trkpt lat="53.33888300670622" lon="14.644710649194352"><ele>150.7142857142857</ele><time>2026-04-12T09:36:55.999Z</time></trkpt><trkpt lat="53.33893946833126" lon="14.644778670886229"><ele>150.0</ele><time>2026-04-12T09:37:02.999Z</time></trkpt><trkpt lat="53.338996522363765" lon="14.64485104836153"><ele>150.0</ele><time>2026-04-12T09:37:07.998Z</time></trkpt><trkpt lat="53.33903155534778" lon="14.644962294126424"><ele>150.0</ele><time>2026-04-12T09:37:17.998Z</time></trkpt><trkpt lat="53.33894939111856" lon="14.644931519809907"><ele>150.0</ele><time>2026-04-12T09:37:45.998Z</time></trkpt><trkpt lat="53.338863246942935" lon="14.64489178276184"><ele>150.0</ele><time>2026-04-12T09:38:01Z</time></trkpt><trkpt lat="53.33892178975864" lon="14.64494520770346"><ele>150.0</ele><time>2026-04-12T09:38:11Z</time></trkpt><trkpt lat="53.33899271976056" lon="14.64503054773736"><ele>150.0</ele><time>2026-04-12T09:38:14Z</time></trkpt><trkpt lat="53.339045780129815" lon="14.645118886302734"><ele>149.99999999999997</ele><time>2026-04-12T09:38:18Z</time></trkpt><trkpt lat="53.339074153213566" lon="14.645214830752616"><ele>150.0</ele><time>2026-04-12T09:38:23Z</time></trkpt><trkpt lat="53.33909023206448" lon="14.645322659545213"><ele>150.0</ele><time>2026-04-12T09:38:30Z</time></trkpt><trkpt lat="53.33910741756928" lon="14.645435815006346"><ele>150.0</ele><time>2026-04-12T09:38:34.999Z</time></trkpt><trkpt lat="53.3391162597615" lon="14.64554434201861"><ele>150.0</ele><time>2026-04-12T09:38:40.999Z</time></trkpt><trkpt lat="53.33914689606275" lon="14.64567714330701"><ele>149.99999999999997</ele><time>2026-04-12T09:38:47.999Z</time></trkpt><trkpt lat="53.33915867561649" lon="14.645787421390825"><ele>150.0</ele><time>2026-04-12T09:38:53.999Z</time></trkpt><trkpt lat="53.33917245812038" lon="14.645890932136993"><ele>149.57142857142856</ele><time>2026-04-12T09:39:00.999Z</time></trkpt><trkpt lat="53.339190613873114" lon="14.646004311208566"><ele>149.14285714285714</ele><time>2026-04-12T09:39:08.999Z</time></trkpt><trkpt lat="53.33921050258973" lon="14.646126955059989"><ele>148.71428571428572</ele><time>2026-04-12T09:39:15.998Z</time></trkpt><trkpt lat="53.33923391361962" lon="14.646229751996882"><ele>148.28571428571428</ele><time>2026-04-12T09:39:23.998Z</time></trkpt><trkpt lat="53.33924811938452" lon="14.646340014640709"><ele>147.85714285714286</ele><time>2026-04-12T09:39:33.998Z</time></trkpt><trkpt lat="53.33925925500894" lon="14.646449008715814"><ele>147.42857142857142</ele><time>2026-04-12T09:39:41.998Z</time></trkpt><trkpt lat="53.33926459481353" lon="14.646574986434707"><ele>147.0</ele><time>2026-04-12T09:39:46.998Z</time></trkpt><trkpt lat="53.339275317790836" lon="14.646686107635668"><ele>146.28571428571428</ele><time>2026-04-12T09:39:50.998Z</time></trkpt><trkpt lat="53.339282050750754" lon="14.646802856198386"><ele>145.57142857142856</ele><time>2026-04-12T09:39:59Z</time></trkpt><trkpt lat="53.339288519700624" lon="14.646911300977104"><ele>144.85714285714286</ele><time>2026-04-12T09:40:10Z</time></trkpt><trkpt lat="53.33929478642234" lon="14.647020801822043"><ele>144.14285714285714</ele><time>2026-04-12T09:40:21Z</time></trkpt><trkpt lat="53.33930043484538" lon="14.64715336334987"><ele>143.42857142857142</ele><time>2026-04-12T09:40:30Z</time></trkpt><trkpt lat="53.339305660706856" lon="14.647279269537172"><ele>142.71428571428572</ele><time>2026-04-12T09:40:39.999Z</time></trkpt><trkpt lat="53.33931071373727" lon="14.647398939193884"><ele>142.0</ele><time>2026-04-12T09:40:44.999Z</time></trkpt><trkpt lat="53.33931522542022" lon="14.647505788299728"><ele>141.28571428571428</ele><time>2026-04-12T09:40:49.999Z</time></trkpt><trkpt lat="53.33932199092433" lon="14.647633396660632"><ele>140.57142857142856</ele><time>2026-04-12T09:40:56.999Z</time></trkpt><trkpt lat="53.339328386625496" lon="14.64773919221657"><ele>139.85714285714286</ele><time>2026-04-12T09:41:03.999Z</time></trkpt><trkpt lat="53.33933712334342" lon="14.64786660003401"><ele>139.14285714285714</ele><time>2026-04-12T09:41:07.999Z</time></trkpt><trkpt lat="53.339346795141495" lon="14.647974198808837"><ele>138.42857142857144</ele><time>2026-04-12T09:41:13.999Z</time></trkpt><trkpt lat="53.33935815149619" lon="14.64809569547822"><ele>137.71428571428572</ele><time>2026-04-12T09:41:20.998Z</time></trkpt><trkpt lat="53.33937210671707" lon="14.648233565578561"><ele>137.0</ele><time>2026-04-12T09:41:26.998Z</time></trkpt><trkpt lat="53.3393931751751" lon="14.648345383336025"><ele>136.14285714285717</ele><time>2026-04-12T09:41:32.998Z</time></trkpt><trkpt lat="53.339396447079295" lon="14.648452716875203"><ele>135.28571428571428</ele><time>2026-04-12T09:42:07Z</time></trkpt><trkpt lat="53.339416227384476" lon="14.648564572606322"><ele>134.42857142857144</ele><time>2026-04-12T09:42:13Z</time></trkpt><trkpt lat="53.3394217869196" lon="14.648670631729754"><ele>133.57142857142858</ele><time>2026-04-12T09:42:18Z</time></trkpt><trkpt lat="53.33943480129156" lon="14.648784540835493"><ele>132.71428571428572</ele><time>2026-04-12T09:42:23Z</time></trkpt><trkpt lat="53.33944982088426" lon="14.648911188150947"><ele>131.85714285714286</ele><time>2026-04-12T09:42:29Z</time></trkpt><trkpt lat="53.33940311664698" lon="14.64901191427645"><ele>131.0</ele><time>2026-04-12T09:42:35Z</time></trkpt><trkpt lat="53.33936024545461" lon="14.649105885939452"><ele>129.5</ele><time>2026-04-12T09:42:39.999Z</time></trkpt><trkpt lat="53.33943637442045" lon="14.649169287726565"><ele>128.0</ele><time>2026-04-12T09:42:52.999Z</time></trkpt><trkpt lat="53.33936455758787" lon="14.649137108003519"><ele>126.5</ele><time>2026-04-12T09:43:26.998Z</time></trkpt><trkpt lat="53.33939354414581" lon="14.6492879133729"><ele>125.0</ele><time>2026-04-12T09:43:43.998Z</time></trkpt><trkpt lat="53.33942829869925" lon="14.649385973545"><ele>123.49999999999999</ele><time>2026-04-12T09:43:52.998Z</time></trkpt><trkpt lat="53.33948532745199" lon="14.64943869578"><ele>122.0</ele><time>2026-04-12T09:43:57.998Z</time></trkpt><trkpt lat="53.33953422999874" lon="14.649515491111103"><ele>121.14285714285712</ele><time>2026-04-12T09:44:04.998Z</time></trkpt><trkpt lat="53.33954709633458" lon="14.64963470501259"><ele>120.28571428571428</ele><time>2026-04-12T09:44:13Z</time></trkpt><trkpt lat="53.33955212797148" lon="14.649755948479909"><ele>119.42857142857143</ele><time>2026-04-12T09:44:22Z</time></trkpt><trkpt lat="53.339479609157685" lon="14.649769739974277"><ele>118.57142857142857</ele><time>2026-04-12T09:44:27Z</time></trkpt><trkpt lat="53.33940212820987" lon="14.649699540092211"><ele>117.71428571428572</ele><time>2026-04-12T09:44:30Z</time></trkpt><trkpt lat="53.33934199485844" lon="14.649746071406083"><ele>116.85714285714288</ele><time>2026-04-12T09:44:37Z</time></trkpt><trkpt lat="53.33927413827928" lon="14.649775706181973"><ele>116.00000000000001</ele><time>2026-04-12T09:44:39Z</time></trkpt><trkpt lat="53.33919399268263" lon="14.649793983737183"><ele>116.00000000000001</ele><time>2026-04-12T09:44:50.999Z</time></trkpt><trkpt lat="53.33913924980253" lon="14.649848810267454"><ele>116.0</ele><time>2026-04-12T09:45:00.999Z</time></trkpt><trkpt lat="53.33907244031746" lon="14.649874574267846"><ele>116.00000000000001</ele><time>2026-04-12T09:45:10.999Z</time></trkpt><trkpt lat="53.339005206306794" lon="14.649881166178384"><ele>116.00000000000001</ele><time>2026-04-12T09:45:19.999Z</time></trkpt><trkpt lat="53.338953826267385" lon="14.649974078419525"><ele>116.0</ele><time>2026-04-12T09:45:24.999Z</time></trkpt><trkpt lat="53.338957068176825" lon="14.650126175404703"><ele>116.00000000000001</ele><time>2026-04-12T09:45:25.999Z</time></trkpt><trkpt lat="53.33891594677962" lon="14.650213586894182"><ele>116.00000000000001</ele><time>2026-04-12T09:45:34.998Z</time></trkpt><trkpt lat="53.33886082710559" lon="14.650287102459346"><ele>118.00000000000001</ele><time>2026-04-12T09:45:41.998Z</time></trkpt><trkpt lat="53.338804695074664" lon="14.650362546935996"><ele>120.0</ele><time>2026-04-12T09:45:47.998Z</time></trkpt><trkpt lat="53.3387437789113" lon="14.650444211800897"><ele>122.00000000000001</ele><time>2026-04-12T09:45:54.998Z</time></trkpt><trkpt lat="53.338692816268775" lon="14.650524242025561"><ele>124.00000000000001</ele><time>2026-04-12T09:46:01.998Z</time></trkpt><trkpt lat="53.3386522446409" lon="14.650612581560031"><ele>126.0</ele><time>2026-04-12T09:46:06.998Z</time></trkpt><trkpt lat="53.33861221331707" lon="14.650696226311998"><ele>128.00000000000003</ele><time>2026-04-12T09:46:15Z</time></trkpt><trkpt lat="53.338567918134196" lon="14.650782686504519"><ele>130.0</ele><time>2026-04-12T09:46:23Z</time></trkpt><trkpt lat="53.338531084605016" lon="14.650885183393067"><ele>130.00000000000003</ele><time>2026-04-12T09:46:31Z</time></trkpt><trkpt lat="53.338498640498806" lon="14.650999976913607"><ele>130.0</ele><time>2026-04-12T09:46:39Z</time></trkpt><trkpt lat="53.338470985767046" lon="14.651112513020035"><ele>130.0</ele><time>2026-04-12T09:46:46Z</time></trkpt><trkpt lat="53.338447255841146" lon="14.651222883446579"><ele>130.0</ele><time>2026-04-12T09:46:52.999Z</time></trkpt><trkpt lat="53.33842694454831" lon="14.65132419231405"><ele>130.0</ele><time>2026-04-12T09:46:58.999Z</time></trkpt><trkpt lat="53.33840472268557" lon="14.651451062113004"><ele>130.00000000000003</ele><time>2026-04-12T09:47:04.999Z</time></trkpt><trkpt lat="53.338385730009506" lon="14.65156716658868"><ele>130.0</ele><time>2026-04-12T09:47:10.999Z</time></trkpt><trkpt lat="53.33836947881293" lon="14.65167611298735"><ele>129.85714285714286</ele><time>2026-04-12T09:47:17.999Z</time></trkpt><trkpt lat="53.33835441712066" lon="14.651781931100869"><ele>129.71428571428572</ele><time>2026-04-12T09:47:22.999Z</time></trkpt><trkpt lat="53.33833995461851" lon="14.651884858191588"><ele>129.57142857142856</ele><time>2026-04-12T09:47:28.999Z</time></trkpt><trkpt lat="53.3383255255434" lon="14.651995446756331"><ele>129.42857142857144</ele><time>2026-04-12T09:47:34.998Z</time></trkpt><trkpt lat="53.33831224196443" lon="14.652098686799544"><ele>129.28571428571428</ele><time>2026-04-12T09:47:41.998Z</time></trkpt><trkpt lat="53.338298315027686" lon="14.65221675664098"><ele>129.14285714285714</ele><time>2026-04-12T09:47:46.998Z</time></trkpt><trkpt lat="53.33828580103668" lon="14.652322847785594"><ele>129.0</ele><time>2026-04-12T09:47:53.998Z</time></trkpt><trkpt lat="53.33827205067649" lon="14.652439420582484"><ele>129.28571428571428</ele><time>2026-04-12T09:47:59.998Z</time></trkpt><trkpt lat="53.33825958959898" lon="14.652548731140753"><ele>129.57142857142856</ele><time>2026-04-12T09:48:05.998Z</time></trkpt><trkpt lat="53.338248535793774" lon="14.652678666022316"><ele>129.85714285714286</ele><time>2026-04-12T09:48:10.998Z</time></trkpt><trkpt lat="53.33823233776403" lon="14.652789208535841"><ele>130.14285714285714</ele><time>2026-04-12T09:48:19Z</time></trkpt><trkpt lat="53.33822464366894" lon="14.652894686322304"><ele>130.42857142857144</ele><time>2026-04-12T09:48:27Z</time></trkpt><trkpt lat="53.338208247393624" lon="14.653007793224438"><ele>130.71428571428572</ele><time>2026-04-12T09:48:33Z</time></trkpt><trkpt lat="53.33819646953779" lon="14.653115566428317"><ele>131.0</ele><time>2026-04-12T09:48:39Z</time></trkpt><trkpt lat="53.33818297473076" lon="14.653226751253456"><ele>131.42857142857144</ele><time>2026-04-12T09:48:44Z</time></trkpt><trkpt lat="53.338171829542716" lon="14.653340749261805"><ele>131.85714285714286</ele><time>2026-04-12T09:48:50.999Z</time></trkpt><trkpt lat="53.33816373840112" lon="14.65345212995675"><ele>132.28571428571428</ele><time>2026-04-12T09:48:57.999Z</time></trkpt><trkpt lat="53.33814662193873" lon="14.653554767205518"><ele>132.71428571428572</ele><time>2026-04-12T09:49:02.999Z</time></trkpt><trkpt lat="53.33812932255667" lon="14.653664954481407"><ele>133.14285714285714</ele><time>2026-04-12T09:49:09.999Z</time></trkpt><trkpt lat="53.33811529895161" lon="14.653768648186405"><ele>133.57142857142858</ele><time>2026-04-12T09:49:15.999Z</time></trkpt><trkpt lat="53.33810036051876" lon="14.653879277146904"><ele>134.0</ele><time>2026-04-12T09:49:21.999Z</time></trkpt><trkpt lat="53.33808619195062" lon="14.653987742732314"><ele>134.85714285714286</ele><time>2026-04-12T09:49:27.999Z</time></trkpt><trkpt lat="53.338073149438216" lon="14.654099722472411"><ele>135.71428571428572</ele><time>2026-04-12T09:49:34.999Z</time></trkpt><trkpt lat="53.338066112499305" lon="14.654212590121642"><ele>136.57142857142856</ele><time>2026-04-12T09:49:39.998Z</time></trkpt><trkpt lat="53.338056129387425" lon="14.654331111654615"><ele>137.42857142857144</ele><time>2026-04-12T09:49:46.998Z</time></trkpt><trkpt lat="53.3380440591771" lon="14.654446466736076"><ele>138.28571428571428</ele><time>2026-04-12T09:49:53.998Z</time></trkpt><trkpt lat="53.33803157439104" lon="14.654567152978306"><ele>139.14285714285714</ele><time>2026-04-12T09:49:59.998Z</time></trkpt><trkpt lat="53.33802083197018" lon="14.654673685311888"><ele>140.0</ele><time>2026-04-12T09:50:06.998Z</time></trkpt><trkpt lat="53.338010349988984" lon="14.654777917700802"><ele>141.0</ele><time>2026-04-12T09:50:12.998Z</time></trkpt><trkpt lat="53.33799905665759" lon="14.654885600609692"><ele>142.0</ele><time>2026-04-12T09:50:19.998Z</time></trkpt><trkpt lat="53.33798796027896" lon="14.654991457155125"><ele>143.0</ele><time>2026-04-12T09:50:26Z</time></trkpt><trkpt lat="53.337968423181195" lon="14.655094699171904"><ele>144.0</ele><time>2026-04-12T09:50:36Z</time></trkpt><trkpt lat="53.33795611254316" lon="14.6552051782547"><ele>145.0</ele><time>2026-04-12T09:50:45Z</time></trkpt><trkpt lat="53.337944110998784" lon="14.655313934256325"><ele>146.0</ele><time>2026-04-12T09:50:50Z</time></trkpt><trkpt lat="53.33793254611362" lon="14.65542848943323"><ele>147.0</ele><time>2026-04-12T09:50:57Z</time></trkpt><trkpt lat="53.33792115955751" lon="14.655534317301791"><ele>147.71428571428572</ele><time>2026-04-12T09:51:04.999Z</time></trkpt><trkpt lat="53.3379031767551" lon="14.65564113581958"><ele>148.42857142857144</ele><time>2026-04-12T09:51:13.999Z</time></trkpt><trkpt lat="53.33788656748131" lon="14.655752971589184"><ele>149.14285714285714</ele><time>2026-04-12T09:51:30.999Z</time></trkpt><trkpt lat="53.33787523144914" lon="14.655872353507089"><ele>149.85714285714286</ele><time>2026-04-12T09:51:36.999Z</time></trkpt><trkpt lat="53.33784760659477" lon="14.655976247499765"><ele>150.57142857142858</ele><time>2026-04-12T09:51:43.998Z</time></trkpt><trkpt lat="53.337829390301636" lon="14.656083834311008"><ele>151.28571428571428</ele><time>2026-04-12T09:51:53.998Z</time></trkpt><trkpt lat="53.33788523017833" lon="14.656137236914187"><ele>152.0</ele><time>2026-04-12T09:51:59.998Z</time></trkpt><trkpt lat="53.33795564368605" lon="14.656181310890899"><ele>152.0</ele><time>2026-04-12T09:52:03.998Z</time></trkpt><trkpt lat="53.3379775472195" lon="14.656080778807238"><ele>152.0</ele><time>2026-04-12T09:52:18.998Z</time></trkpt><trkpt lat="53.338046577932396" lon="14.65599027009549"><ele>152.0</ele><time>2026-04-12T09:52:29.997Z</time></trkpt><trkpt lat="53.33811715467246" lon="14.656005457360878"><ele>152.0</ele><time>2026-04-12T09:52:37Z</time></trkpt><trkpt lat="53.338181940454476" lon="14.656009371358616"><ele>152.0</ele><time>2026-04-12T09:52:43Z</time></trkpt><trkpt lat="53.33824651031319" lon="14.656009420314792"><ele>152.0</ele><time>2026-04-12T09:52:51Z</time></trkpt><trkpt lat="53.338313097065935" lon="14.655961199698988"><ele>152.0</ele><time>2026-04-12T09:53:06Z</time></trkpt><trkpt lat="53.33837835249317" lon="14.655909330061048"><ele>151.7142857142857</ele><time>2026-04-12T09:53:10.999Z</time></trkpt><trkpt lat="53.338427062788384" lon="14.65583823588676"><ele>151.42857142857144</ele><time>2026-04-12T09:53:16.999Z</time></trkpt><trkpt lat="53.33847082375553" lon="14.655744708811948"><ele>151.14285714285714</ele><time>2026-04-12T09:53:24.999Z</time></trkpt><trkpt lat="53.338518313173196" lon="14.65566785721698"><ele>150.85714285714283</ele><time>2026-04-12T09:53:31.999Z</time></trkpt><trkpt lat="53.33858088728125" lon="14.655598206948616"><ele>150.57142857142856</ele><time>2026-04-12T09:53:40.999Z</time></trkpt><trkpt lat="53.338636425828156" lon="14.65552640960986"><ele>150.28571428571428</ele><time>2026-04-12T09:53:47.999Z</time></trkpt><trkpt lat="53.33869358262126" lon="14.655456543362705"><ele>150.0</ele><time>2026-04-12T09:53:53.999Z</time></trkpt><trkpt lat="53.33874804080462" lon="14.655376583011535"><ele>149.99999999999997</ele><time>2026-04-12T09:53:59.998Z</time></trkpt><trkpt lat="53.338795302809466" lon="14.655305358659808"><ele>150.0</ele><time>2026-04-12T09:54:06.998Z</time></trkpt><trkpt lat="53.33885543114171" lon="14.655258808451926"><ele>150.0</ele><time>2026-04-12T09:54:12.998Z</time></trkpt><trkpt lat="53.3389061559798" lon="14.655191700141312"><ele>150.0</ele><time>2026-04-12T09:54:18.998Z</time></trkpt><trkpt lat="53.33895131344068" lon="14.655110007032242"><ele>150.0</ele><time>2026-04-12T09:54:23.998Z</time></trkpt><trkpt lat="53.33900969333315" lon="14.655037897426604"><ele>149.99999999999997</ele><time>2026-04-12T09:54:32.998Z</time></trkpt><trkpt lat="53.33898663041111" lon="14.654927901372965"><ele>150.0</ele><time>2026-04-12T09:54:42Z</time></trkpt><trkpt lat="53.33890351698998" lon="14.654868692977232"><ele>149.99999999999997</ele><time>2026-04-12T09:55:16.999Z</time></trkpt><trkpt lat="53.33895767975522" lon="14.654956168609313"><ele>150.0</ele><time>2026-04-12T10:00:16.998Z</time></trkpt><trkpt lat="53.33891770613039" lon="14.654844571045016"><ele>150.0</ele><time>2026-04-12T10:01:07Z</time></trkpt><trkpt lat="53.33898181018163" lon="14.6549377272696"><ele>150.0</ele><time>2026-04-12T10:01:15Z</time></trkpt><trkpt lat="53.33905517686724" lon="14.65491891769941"><ele>150.0</ele><time>2026-04-12T10:01:19Z</time></trkpt><trkpt lat="53.338990089205616" lon="14.654893306245881"><ele>149.99999999999997</ele><time>2026-04-12T10:01:28Z</time></trkpt><trkpt lat="53.339053563853746" lon="14.654896396119648"><ele>150.0</ele><time>2026-04-12T10:01:31.999Z</time></trkpt><trkpt lat="53.33910269676474" lon="14.654821294090297"><ele>149.99999999999997</ele><time>2026-04-12T10:01:38.999Z</time></trkpt><trkpt lat="53.33916113856826" lon="14.654780160034054"><ele>150.0</ele><time>2026-04-12T10:01:43.999Z</time></trkpt><trkpt lat="53.339232663283994" lon="14.654764797289298"><ele>150.0</ele><time>2026-04-12T10:01:49.999Z</time></trkpt><trkpt lat="53.33931483958072" lon="14.654761487223348"><ele>150.0</ele><time>2026-04-12T10:01:56.999Z</time></trkpt><trkpt lat="53.33938054820836" lon="14.654788241258656"><ele>150.0</ele><time>2026-04-12T10:02:07.999Z</time></trkpt><trkpt lat="53.339444779132315" lon="14.654821695070593"><ele>149.99999999999997</ele><time>2026-04-12T10:02:14.998Z</time></trkpt><trkpt lat="53.3394909752147" lon="14.654900513169492"><ele>150.0</ele><time>2026-04-12T10:02:18.998Z</time></trkpt><trkpt lat="53.33953579090573" lon="14.65498533498529"><ele>149.99999999999997</ele><time>2026-04-12T10:02:24.998Z</time></trkpt><trkpt lat="53.33960674962639" lon="14.655047959283973"><ele>150.0</ele><time>2026-04-12T10:02:30.998Z</time></trkpt><trkpt lat="53.33965277234405" lon="14.655150749802887"><ele>150.0</ele><time>2026-04-12T10:02:39.998Z</time></trkpt><trkpt lat="53.33971469844397" lon="14.655199739983209"><ele>150.0</ele><time>2026-04-12T10:02:44.998Z</time></trkpt><trkpt lat="53.339759346702834" lon="14.655290035784631"><ele>150.0</ele><time>2026-04-12T10:02:50.998Z</time></trkpt><trkpt lat="53.33982098100936" lon="14.655268128139474"><ele>149.99999999999997</ele><time>2026-04-12T10:02:55.997Z</time></trkpt><trkpt lat="53.339902718058745" lon="14.655298713144981"><ele>150.0</ele><time>2026-04-12T10:02:58.997Z</time></trkpt><trkpt lat="53.339969385911466" lon="14.655331233532268"><ele>149.7142857142857</ele><time>2026-04-12T10:03:04Z</time></trkpt><trkpt lat="53.34003359733739" lon="14.65535617343414"><ele>149.42857142857142</ele><time>2026-04-12T10:03:16Z</time></trkpt><trkpt lat="53.34009031460591" lon="14.655407148241762"><ele>149.14285714285714</ele><time>2026-04-12T10:03:24Z</time></trkpt><trkpt lat="53.340156897567184" lon="14.655435783494"><ele>148.85714285714283</ele><time>2026-04-12T10:03:30Z</time></trkpt><trkpt lat="53.340222893508106" lon="14.655401135005135"><ele>148.57142857142856</ele><time>2026-04-12T10:03:34.999Z</time></trkpt><trkpt lat="53.34028759474594" lon="14.655401457489102"><ele>148.28571428571428</ele><time>2026-04-12T10:03:40.999Z</time></trkpt><trkpt lat="53.34035194497169" lon="14.655443238543297"><ele>148.0</ele><time>2026-04-12T10:03:46.999Z</time></trkpt><trkpt lat="53.3403932369348" lon="14.655345390610874"><ele>148.0</ele><time>2026-04-12T10:03:51.999Z</time></trkpt><trkpt lat="53.34044730806505" lon="14.655288210125287"><ele>148.0</ele><time>2026-04-12T10:03:58.999Z</time></trkpt><trkpt lat="53.34051145946466" lon="14.65529428082879"><ele>148.0</ele><time>2026-04-12T10:04:02.999Z</time></trkpt><trkpt lat="53.34056898642408" lon="14.655251060638246"><ele>148.0</ele><time>2026-04-12T10:04:07.999Z</time></trkpt><trkpt lat="53.34064191288934" lon="14.655230292805319"><ele>148.0</ele><time>2026-04-12T10:04:14.999Z</time></trkpt><trkpt lat="53.34070811035155" lon="14.655283037207939"><ele>148.0</ele><time>2026-04-12T10:04:21.998Z</time></trkpt><trkpt lat="53.34077601321658" lon="14.655302225344661"><ele>148.0</ele><time>2026-04-12T10:04:28.998Z</time></trkpt><trkpt lat="53.3408248748369" lon="14.655376804217312"><ele>147.57142857142858</ele><time>2026-04-12T10:04:35.998Z</time></trkpt><trkpt lat="53.340890132442716" lon="14.655426974713771"><ele>147.14285714285714</ele><time>2026-04-12T10:04:43.998Z</time></trkpt><trkpt lat="53.340906064470694" lon="14.655545069992863"><ele>146.71428571428572</ele><time>2026-04-12T10:04:51.998Z</time></trkpt><trkpt lat="53.340966093738885" lon="14.655581924176792"><ele>146.28571428571428</ele><time>2026-04-12T10:04:57.998Z</time></trkpt><trkpt lat="53.34097750817161" lon="14.65569264435999"><ele>145.85714285714286</ele><time>2026-04-12T10:05:04.997Z</time></trkpt><trkpt lat="53.34101407845222" lon="14.65579718279823"><ele>145.42857142857144</ele><time>2026-04-12T10:05:13Z</time></trkpt><trkpt lat="53.34105944505323" lon="14.655874734881497"><ele>145.0</ele><time>2026-04-12T10:05:22Z</time></trkpt><trkpt lat="53.34112625362234" lon="14.655884595233886"><ele>145.0</ele><time>2026-04-12T10:05:26Z</time></trkpt><trkpt lat="53.34111515271622" lon="14.655992343043508"><ele>145.0</ele><time>2026-04-12T10:05:46.999Z</time></trkpt><trkpt lat="53.34112500597511" lon="14.65610908330151"><ele>145.0</ele><time>2026-04-12T10:05:53.999Z</time></trkpt><trkpt lat="53.3411233575394" lon="14.656216614678822"><ele>145.0</ele><time>2026-04-12T10:06:01.999Z</time></trkpt><trkpt lat="53.341129543580145" lon="14.65633532318861"><ele>145.0</ele><time>2026-04-12T10:06:08.999Z</time></trkpt><trkpt lat="53.34111946136246" lon="14.656442634788796"><ele>145.0</ele><time>2026-04-12T10:06:15.999Z</time></trkpt><trkpt lat="53.34108671382783" lon="14.656562959208115"><ele>145.0</ele><time>2026-04-12T10:06:24.999Z</time></trkpt><trkpt lat="53.341148830479426" lon="14.65658785762921"><ele>144.42857142857144</ele><time>2026-04-12T10:06:32.998Z</time></trkpt><trkpt lat="53.341121839653674" lon="14.656684407248527"><ele>143.85714285714286</ele><time>2026-04-12T10:06:35.998Z</time></trkpt><trkpt lat="53.341137099973366" lon="14.656790957571559"><ele>143.28571428571428</ele><time>2026-04-12T10:06:41.998Z</time></trkpt><trkpt lat="53.34114453206013" lon="14.656895910869075"><ele>142.71428571428572</ele><time>2026-04-12T10:06:45.998Z</time></trkpt><trkpt lat="53.341140511869504" lon="14.657028663827665"><ele>142.14285714285714</ele><time>2026-04-12T10:06:52.998Z</time></trkpt><trkpt lat="53.34116043987021" lon="14.657144990163616"><ele>141.57142857142858</ele><time>2026-04-12T10:07:00.998Z</time></trkpt><trkpt lat="53.34117430943955" lon="14.65726256380441"><ele>141.0</ele><time>2026-04-12T10:07:06.998Z</time></trkpt><trkpt lat="53.341182070834556" lon="14.657384472052984"><ele>139.42857142857144</ele><time>2026-04-12T10:07:22Z</time></trkpt><trkpt lat="53.341195495120616" lon="14.657489829825675"><ele>137.85714285714286</ele><time>2026-04-12T10:07:29Z</time></trkpt><trkpt lat="53.34120968882601" lon="14.657594001527192"><ele>136.28571428571428</ele><time>2026-04-12T10:07:35Z</time></trkpt><trkpt lat="53.34123399345442" lon="14.657697374549976"><ele>134.71428571428572</ele><time>2026-04-12T10:07:41Z</time></trkpt><trkpt lat="53.34123184934489" lon="14.657818978296763"><ele>133.14285714285714</ele><time>2026-04-12T10:07:48.999Z</time></trkpt><trkpt lat="53.341227445615786" lon="14.657940827974139"><ele>131.57142857142858</ele><time>2026-04-12T10:07:54.999Z</time></trkpt><trkpt lat="53.34129093555097" lon="14.65802607367507"><ele>130.0</ele><time>2026-04-12T10:07:59.999Z</time></trkpt><trkpt lat="53.341311357329154" lon="14.658132995794938"><ele>129.0</ele><time>2026-04-12T10:08:13.999Z</time></trkpt><trkpt lat="53.34120488393654" lon="14.658227165910573"><ele>128.0</ele><time>2026-04-12T10:08:52.998Z</time></trkpt><trkpt lat="53.341141752546825" lon="14.658201668423184"><ele>127.0</ele><time>2026-04-12T10:09:25Z</time></trkpt><trkpt lat="53.34110203733411" lon="14.658302656130296"><ele>126.0</ele><time>2026-04-12T10:09:55.999Z</time></trkpt><trkpt lat="53.34101997795898" lon="14.658350037530951"><ele>125.00000000000001</ele><time>2026-04-12T10:10:25.999Z</time></trkpt><trkpt lat="53.340959052996965" lon="14.658395431738045"><ele>124.0</ele><time>2026-04-12T10:10:41.999Z</time></trkpt><trkpt lat="53.34093959174164" lon="14.65850715729132"><ele>124.00000000000001</ele><time>2026-04-12T10:11:06.998Z</time></trkpt><trkpt lat="53.34088167679132" lon="14.658578387898316"><ele>124.0</ele><time>2026-04-12T10:11:13.998Z</time></trkpt><trkpt lat="53.34081860919384" lon="14.658629762585747"><ele>124.0</ele><time>2026-04-12T10:11:20.998Z</time></trkpt><trkpt lat="53.340826726950816" lon="14.658874571944347"><ele>124.0</ele><time>2026-04-12T10:11:45Z</time></trkpt><trkpt lat="53.340806002074025" lon="14.658976691242678"><ele>124.00000000000001</ele><time>2026-04-12T10:11:48Z</time></trkpt><trkpt lat="53.34081449744022" lon="14.65908637905435"><ele>124.0</ele><time>2026-04-12T10:11:55Z</time></trkpt><trkpt lat="53.34083595698118" lon="14.659192238494967"><ele>122.85714285714286</ele><time>2026-04-12T10:12:02.999Z</time></trkpt><trkpt lat="53.34083521925251" lon="14.65930141506592"><ele>121.71428571428572</ele><time>2026-04-12T10:12:10.999Z</time></trkpt><trkpt lat="53.34083407688916" lon="14.65941246702619"><ele>120.57142857142858</ele><time>2026-04-12T10:12:16.999Z</time></trkpt><trkpt lat="53.34083872371405" lon="14.659521840356593"><ele>119.42857142857144</ele><time>2026-04-12T10:12:19.999Z</time></trkpt><trkpt lat="53.34086034846497" lon="14.659632192326846"><ele>118.28571428571429</ele><time>2026-04-12T10:12:25.999Z</time></trkpt><trkpt lat="53.3408811325144" lon="14.659741341636737"><ele>117.14285714285717</ele><time>2026-04-12T10:12:31.999Z</time></trkpt><trkpt lat="53.34093485630055" lon="14.65983742130625"><ele>116.00000000000001</ele><time>2026-04-12T10:12:38.999Z</time></trkpt><trkpt lat="53.34099906478288" lon="14.659870961369524"><ele>116.00000000000001</ele><time>2026-04-12T10:12:43.998Z</time></trkpt><trkpt lat="53.34105365094568" lon="14.659927787225897"><ele>116.0</ele><time>2026-04-12T10:12:48.998Z</time></trkpt><trkpt lat="53.34111678889546" lon="14.659932647966635"><ele>116.00000000000001</ele><time>2026-04-12T10:12:51.998Z</time></trkpt><trkpt lat="53.34117832262946" lon="14.659986205382632"><ele>116.00000000000001</ele><time>2026-04-12T10:12:57.998Z</time></trkpt><trkpt lat="53.34123091936958" lon="14.66005531988981"><ele>116.0</ele><time>2026-04-12T10:13:01.998Z</time></trkpt><trkpt lat="53.34130702278582" lon="14.660048884554255"><ele>116.00000000000001</ele><time>2026-04-12T10:13:05.998Z</time></trkpt><trkpt lat="53.341382331313255" lon="14.660058226900807"><ele>116.00000000000001</ele><time>2026-04-12T10:13:13.998Z</time></trkpt><trkpt lat="53.34145642372168" lon="14.660018380931225"><ele>115.14285714285715</ele><time>2026-04-12T10:13:18.998Z</time></trkpt><trkpt lat="53.34152033795034" lon="14.659996791102957"><ele>114.28571428571429</ele><time>2026-04-12T10:13:23.998Z</time></trkpt><trkpt lat="53.34159328755096" lon="14.660013826310244"><ele>113.42857142857143</ele><time>2026-04-12T10:13:30Z</time></trkpt><trkpt lat="53.34165712307614" lon="14.659971201402163"><ele>112.57142857142858</ele><time>2026-04-12T10:13:35Z</time></trkpt><trkpt lat="53.34170999479463" lon="14.65990038255922"><ele>111.71428571428572</ele><time>2026-04-12T10:13:38Z</time></trkpt><trkpt lat="53.3417801286725" lon="14.659914328502765"><ele>110.85714285714285</ele><time>2026-04-12T10:13:43Z</time></trkpt><trkpt lat="53.341837032134876" lon="14.659859465268955"><ele>110.0</ele><time>2026-04-12T10:13:50Z</time></trkpt><trkpt lat="53.341915182163994" lon="14.659832506664522"><ele>109.99999999999999</ele><time>2026-04-12T10:13:55Z</time></trkpt><trkpt lat="53.3419805605745" lon="14.65983907819388"><ele>110.0</ele><time>2026-04-12T10:13:59Z</time></trkpt><trkpt lat="53.342047833553764" lon="14.659838590497198"><ele>110.0</ele><time>2026-04-12T10:14:03.999Z</time></trkpt><trkpt lat="53.34211330363485" lon="14.65979666290819"><ele>110.0</ele><time>2026-04-12T10:14:17.999Z</time></trkpt><trkpt lat="53.34218542762905" lon="14.659788997385485"><ele>110.0</ele><time>2026-04-12T10:14:21.999Z</time></trkpt><trkpt lat="53.34223705284095" lon="14.659709077636123"><ele>109.99999999999999</ele><time>2026-04-12T10:14:25.999Z</time></trkpt><trkpt lat="53.34229691032155" lon="14.659669034938869"><ele>110.0</ele><time>2026-04-12T10:14:33.999Z</time></trkpt><trkpt lat="53.34237083307765" lon="14.659626275923545"><ele>109.85714285714285</ele><time>2026-04-12T10:14:40.999Z</time></trkpt><trkpt lat="53.342402512135465" lon="14.659529187482566"><ele>109.71428571428571</ele><time>2026-04-12T10:14:45.999Z</time></trkpt><trkpt lat="53.34246633858229" lon="14.659445271161053"><ele>109.57142857142857</ele><time>2026-04-12T10:14:52.998Z</time></trkpt><trkpt lat="53.342536452506934" lon="14.659405040443675"><ele>109.42857142857142</ele><time>2026-04-12T10:14:59.998Z</time></trkpt><trkpt lat="53.34258187430587" lon="14.659321804106906"><ele>109.28571428571429</ele><time>2026-04-12T10:15:04.998Z</time></trkpt><trkpt lat="53.342624358958915" lon="14.659240637741576"><ele>109.14285714285714</ele><time>2026-04-12T10:15:10.998Z</time></trkpt><trkpt lat="53.34267255702013" lon="14.659152302787744"><ele>109.0</ele><time>2026-04-12T10:15:16.998Z</time></trkpt><trkpt lat="53.34272083363214" lon="14.65908432862888"><ele>109.0</ele><time>2026-04-12T10:15:22.998Z</time></trkpt><trkpt lat="53.342779842682745" lon="14.659014942594625"><ele>109.0</ele><time>2026-04-12T10:15:28.998Z</time></trkpt><trkpt lat="53.34284720684273" lon="14.658981009875133"><ele>109.0</ele><time>2026-04-12T10:15:35Z</time></trkpt><trkpt lat="53.342918792527875" lon="14.658950185665708"><ele>109.0</ele><time>2026-04-12T10:15:42Z</time></trkpt><trkpt lat="53.34298039235013" lon="14.658918754594252"><ele>109.0</ele><time>2026-04-12T10:15:46Z</time></trkpt><trkpt lat="53.343061089398205" lon="14.658899962702135"><ele>109.0</ele><time>2026-04-12T10:15:52Z</time></trkpt><trkpt lat="53.343133042561924" lon="14.658960053220685"><ele>109.0</ele><time>2026-04-12T10:15:56Z</time></trkpt><trkpt lat="53.34318553312217" lon="14.659049341565984"><ele>108.71428571428572</ele><time>2026-04-12T10:16:00Z</time></trkpt><trkpt lat="53.343245543276566" lon="14.65910541263825"><ele>108.42857142857143</ele><time>2026-04-12T10:16:05Z</time></trkpt><trkpt lat="53.34329248898591" lon="14.659012359151985"><ele>108.14285714285714</ele><time>2026-04-12T10:16:09Z</time></trkpt><trkpt lat="53.34336746767737" lon="14.659002290274596"><ele>107.85714285714286</ele><time>2026-04-12T10:16:12.999Z</time></trkpt><trkpt lat="53.34343341343168" lon="14.658953732743038"><ele>107.57142857142857</ele><time>2026-04-12T10:16:15.999Z</time></trkpt><trkpt lat="53.343499683968986" lon="14.65892345704187"><ele>107.28571428571429</ele><time>2026-04-12T10:16:19.999Z</time></trkpt><trkpt lat="53.34356068350808" lon="14.658893246510491"><ele>107.0</ele><time>2026-04-12T10:16:22.999Z</time></trkpt><trkpt lat="53.34361941742151" lon="14.65882458312206"><ele>107.00000000000001</ele><time>2026-04-12T10:16:28.999Z</time></trkpt><trkpt lat="53.34368300871687" lon="14.658814980900166"><ele>107.0</ele><time>2026-04-12T10:16:33.999Z</time></trkpt><trkpt lat="53.34374947778503" lon="14.658814309619613"><ele>107.0</ele><time>2026-04-12T10:16:40.999Z</time></trkpt><trkpt lat="53.34379256416255" lon="14.658704004288033"><ele>107.0</ele><time>2026-04-12T10:16:44.999Z</time></trkpt><trkpt lat="53.34383308368221" lon="14.658579949921771"><ele>107.0</ele><time>2026-04-12T10:16:49.999Z</time></trkpt><trkpt lat="53.343896199398756" lon="14.658553853497423"><ele>107.00000000000001</ele><time>2026-04-12T10:16:57.998Z</time></trkpt><trkpt lat="53.343968494684454" lon="14.658531802312481"><ele>107.0</ele><time>2026-04-12T10:17:04.998Z</time></trkpt><trkpt lat="53.344037961086464" lon="14.658500127185498"><ele>106.28571428571429</ele><time>2026-04-12T10:17:12.998Z</time></trkpt><trkpt lat="53.34409967463748" lon="14.65847729920273"><ele>105.57142857142857</ele><time>2026-04-12T10:17:17.998Z</time></trkpt><trkpt lat="53.344168259820094" lon="14.658443025367033"><ele>104.85714285714286</ele><time>2026-04-12T10:17:21.998Z</time></trkpt><trkpt lat="53.344245213668955" lon="14.658404569524391"><ele>104.14285714285714</ele><time>2026-04-12T10:17:26.998Z</time></trkpt><trkpt lat="53.34431162189608" lon="14.658371293118723"><ele>103.42857142857143</ele><time>2026-04-12T10:17:32.998Z</time></trkpt><trkpt lat="53.34438200184772" lon="14.65833593510668"><ele>102.71428571428572</ele><time>2026-04-12T10:17:37.998Z</time></trkpt><trkpt lat="53.34444280675347" lon="14.65830538750316"><ele>102.0</ele><time>2026-04-12T10:17:43Z</time></trkpt><trkpt lat="53.34451597949622" lon="14.658268626442066"><ele>102.0</ele><time>2026-04-12T10:17:48Z</time></trkpt><trkpt lat="53.34458219219347" lon="14.658226603598262"><ele>102.0</ele><time>2026-04-12T10:17:53Z</time></trkpt><trkpt lat="53.34465252372668" lon="14.658187168147553"><ele>102.0</ele><time>2026-04-12T10:17:58Z</time></trkpt><trkpt lat="53.34472679814958" lon="14.65816173117493"><ele>102.0</ele><time>2026-04-12T10:18:03Z</time></trkpt><trkpt lat="53.34478950532187" lon="14.658120068378187"><ele>102.0</ele><time>2026-04-12T10:18:13Z</time></trkpt><trkpt lat="53.344850471466735" lon="14.658090646530628"><ele>102.0</ele><time>2026-04-12T10:18:18.999Z</time></trkpt><trkpt lat="53.344917350925115" lon="14.6580810589305"><ele>102.0</ele><time>2026-04-12T10:18:24.999Z</time></trkpt><trkpt lat="53.34499164229495" lon="14.658096159208878"><ele>102.0</ele><time>2026-04-12T10:18:40.999Z</time></trkpt><trkpt lat="53.34507357909365" lon="14.658122365641018"><ele>102.0</ele><time>2026-04-12T10:18:46.999Z</time></trkpt><trkpt lat="53.34516416676352" lon="14.658203105063887"><ele>102.0</ele><time>2026-04-12T10:18:51.999Z</time></trkpt><trkpt lat="53.34522212153608" lon="14.658292748285678"><ele>102.0</ele><time>2026-04-12T10:18:57.999Z</time></trkpt><trkpt lat="53.345270706445696" lon="14.658374162919676"><ele>102.0</ele><time>2026-04-12T10:19:02.998Z</time></trkpt><trkpt lat="53.34532414852968" lon="14.65846371689756"><ele>102.0</ele><time>2026-04-12T10:19:10.998Z</time></trkpt><trkpt lat="53.34537323486521" lon="14.658545852176072"><ele>102.0</ele><time>2026-04-12T10:19:16.998Z</time></trkpt><trkpt lat="53.345423222166225" lon="14.658612605381428"><ele>102.0</ele><time>2026-04-12T10:19:23.998Z</time></trkpt><trkpt lat="53.34549980620768" lon="14.658669921027691"><ele>102.0</ele><time>2026-04-12T10:19:27.998Z</time></trkpt><trkpt lat="53.34556262236996" lon="14.658692172363125"><ele>102.0</ele><time>2026-04-12T10:19:32.998Z</time></trkpt><trkpt lat="53.345625861548335" lon="14.658693327439597"><ele>102.0</ele><time>2026-04-12T10:19:48Z</time></trkpt><trkpt lat="53.34569336988146" lon="14.658682471575599"><ele>102.0</ele><time>2026-04-12T10:19:52Z</time></trkpt><trkpt lat="53.34576884758217" lon="14.65866537898412"><ele>102.0</ele><time>2026-04-12T10:20:00Z</time></trkpt><trkpt lat="53.34584005060943" lon="14.658645225554595"><ele>102.0</ele><time>2026-04-12T10:20:03Z</time></trkpt><trkpt lat="53.3459087289075" lon="14.658640694092357"><ele>102.0</ele><time>2026-04-12T10:20:08Z</time></trkpt><trkpt lat="53.34596984931338" lon="14.658609015961124"><ele>102.0</ele><time>2026-04-12T10:20:17Z</time></trkpt><trkpt lat="53.34604586498253" lon="14.658587912914388"><ele>102.0</ele><time>2026-04-12T10:20:24Z</time></trkpt><trkpt lat="53.346115327005926" lon="14.658568007632727"><ele>102.0</ele><time>2026-04-12T10:20:28.999Z</time></trkpt><trkpt lat="53.346177873356474" lon="14.65855051289992"><ele>102.0</ele><time>2026-04-12T10:20:37.999Z</time></trkpt><trkpt lat="53.34625114888551" lon="14.658531992732803"><ele>102.0</ele><time>2026-04-12T10:20:43.999Z</time></trkpt><trkpt lat="53.34632307602171" lon="14.658531992731898"><ele>100.85714285714286</ele><time>2026-04-12T10:20:52.999Z</time></trkpt><trkpt lat="53.34638625006559" lon="14.658577038796576"><ele>99.71428571428572</ele><time>2026-04-12T10:21:04.999Z</time></trkpt><trkpt lat="53.34644457832565" lon="14.658650508600354"><ele>98.57142857142857</ele><time>2026-04-12T10:21:10.999Z</time></trkpt><trkpt lat="53.34648736503925" lon="14.658737436922564"><ele>97.42857142857143</ele><time>2026-04-12T10:21:15.998Z</time></trkpt><trkpt lat="53.34652914019752" lon="14.658822527452223"><ele>96.28571428571428</ele><time>2026-04-12T10:21:22.998Z</time></trkpt><trkpt lat="53.34657280087913" lon="14.658909497583556"><ele>95.14285714285714</ele><time>2026-04-12T10:21:27.998Z</time></trkpt><trkpt lat="53.34662286268122" lon="14.65899613575347"><ele>94.0</ele><time>2026-04-12T10:21:34.998Z</time></trkpt><trkpt lat="53.34667867266264" lon="14.659062083555087"><ele>94.0</ele><time>2026-04-12T10:21:39.998Z</time></trkpt><trkpt lat="53.34673605713724" lon="14.659114455188153"><ele>94.0</ele><time>2026-04-12T10:21:47.998Z</time></trkpt><trkpt lat="53.34680175537861" lon="14.659173389475693"><ele>94.0</ele><time>2026-04-12T10:21:54Z</time></trkpt><trkpt lat="53.34686627810407" lon="14.659219991476437"><ele>94.0</ele><time>2026-04-12T10:22:01Z</time></trkpt><trkpt lat="53.34693189340122" lon="14.659245920936193"><ele>94.0</ele><time>2026-04-12T10:22:06Z</time></trkpt><trkpt lat="53.347002013719695" lon="14.659259750800192"><ele>94.0</ele><time>2026-04-12T10:22:10Z</time></trkpt><trkpt lat="53.34706950550176" lon="14.659225754238625"><ele>94.0</ele><time>2026-04-12T10:22:16Z</time></trkpt><trkpt lat="53.34713023008004" lon="14.659196941513752"><ele>94.0</ele><time>2026-04-12T10:22:20Z</time></trkpt><trkpt lat="53.347200803755285" lon="14.65916556776957"><ele>94.0</ele><time>2026-04-12T10:22:28Z</time></trkpt><trkpt lat="53.34725460760912" lon="14.65907915845012"><ele>94.0</ele><time>2026-04-12T10:22:31.999Z</time></trkpt><trkpt lat="53.34732447789065" lon="14.658972789318662"><ele>94.0</ele><time>2026-04-12T10:22:43.999Z</time></trkpt><trkpt lat="53.34736779693496" lon="14.658893524933546"><ele>94.0</ele><time>2026-04-12T10:22:51.999Z</time></trkpt><trkpt lat="53.34742441975568" lon="14.65881228895081"><ele>94.0</ele><time>2026-04-12T10:22:56.999Z</time></trkpt><trkpt lat="53.34746743777642" lon="14.658733666758417"><ele>94.0</ele><time>2026-04-12T10:23:01.999Z</time></trkpt><trkpt lat="53.34753890636477" lon="14.658683702528382"><ele>93.71428571428571</ele><time>2026-04-12T10:23:11.999Z</time></trkpt><trkpt lat="53.34759979831328" lon="14.658733488937104"><ele>93.42857142857142</ele><time>2026-04-12T10:23:15.998Z</time></trkpt><trkpt lat="53.34767212966558" lon="14.658830900799588"><ele>93.14285714285714</ele><time>2026-04-12T10:23:18.998Z</time></trkpt><trkpt lat="53.34771905615402" lon="14.658927593613939"><ele>92.85714285714286</ele><time>2026-04-12T10:23:25.998Z</time></trkpt><trkpt lat="53.34777513851457" lon="14.65886196035782"><ele>92.57142857142857</ele><time>2026-04-12T10:23:29.998Z</time></trkpt><trkpt lat="53.34784112499617" lon="14.65887374292456"><ele>92.28571428571429</ele><time>2026-04-12T10:23:36.998Z</time></trkpt><trkpt lat="53.347907680717945" lon="14.658900954369884"><ele>92.0</ele><time>2026-04-12T10:23:41.998Z</time></trkpt><trkpt lat="53.34797619590229" lon="14.658935387822014"><ele>92.0</ele><time>2026-04-12T10:23:48.998Z</time></trkpt><trkpt lat="53.348042402286836" lon="14.6589526158264"><ele>92.0</ele><time>2026-04-12T10:23:54.998Z</time></trkpt><trkpt lat="53.34809719483964" lon="14.659022931640942"><ele>92.0</ele><time>2026-04-12T10:23:59Z</time></trkpt><trkpt lat="53.34817227436357" lon="14.6590041655192"><ele>92.0</ele><time>2026-04-12T10:24:03Z</time></trkpt><trkpt lat="53.34823928497609" lon="14.659021468208714"><ele>92.0</ele><time>2026-04-12T10:24:09Z</time></trkpt><trkpt lat="53.348302573673294" lon="14.65902263873627"><ele>92.0</ele><time>2026-04-12T10:24:16Z</time></trkpt><trkpt lat="53.348368723039165" lon="14.658995765521578"><ele>92.0</ele><time>2026-04-12T10:24:21Z</time></trkpt><trkpt lat="53.348457616768016" lon="14.659003993391009"><ele>91.85714285714286</ele><time>2026-04-12T10:24:27Z</time></trkpt><trkpt lat="53.348529099294446" lon="14.658979285634864"><ele>91.71428571428571</ele><time>2026-04-12T10:24:33Z</time></trkpt><trkpt lat="53.348589813333234" lon="14.659021501787644"><ele>91.57142857142857</ele><time>2026-04-12T10:24:38.999Z</time></trkpt><trkpt lat="53.34865745480512" lon="14.659067995548737"><ele>91.42857142857143</ele><time>2026-04-12T10:24:48.999Z</time></trkpt><trkpt lat="53.348720292811656" lon="14.659089194676795"><ele>91.28571428571428</ele><time>2026-04-12T10:24:54.999Z</time></trkpt><trkpt lat="53.348783590096666" lon="14.659092287569456"><ele>91.14285714285714</ele><time>2026-04-12T10:24:59.999Z</time></trkpt><trkpt lat="53.348854389815806" lon="14.65914128868452"><ele>91.0</ele><time>2026-04-12T10:25:07.999Z</time></trkpt><trkpt lat="53.34892256189964" lon="14.659138973272444"><ele>91.0</ele><time>2026-04-12T10:25:10.999Z</time></trkpt><trkpt lat="53.34898743653488" lon="14.659163422621234"><ele>91.0</ele><time>2026-04-12T10:25:17.999Z</time></trkpt><trkpt lat="53.34903354165399" lon="14.659073979399256"><ele>91.0</ele><time>2026-04-12T10:25:29.998Z</time></trkpt><trkpt lat="53.349067235723986" lon="14.659172209084185"><ele>91.0</ele><time>2026-04-12T10:25:34.998Z</time></trkpt><trkpt lat="53.34916045412541" lon="14.659162621712131"><ele>91.0</ele><time>2026-04-12T10:25:38.998Z</time></trkpt><trkpt lat="53.34921895967698" lon="14.659205505566977"><ele>91.0</ele><time>2026-04-12T10:25:43.998Z</time></trkpt><trkpt lat="53.34929103842395" lon="14.659214904927252"><ele>91.0</ele><time>2026-04-12T10:25:50.998Z</time></trkpt><trkpt lat="53.34934734701363" lon="14.659274441706698"><ele>91.0</ele><time>2026-04-12T10:25:56.998Z</time></trkpt><trkpt lat="53.349440968984396" lon="14.65926602677476"><ele>91.0</ele><time>2026-04-12T10:26:01.998Z</time></trkpt><trkpt lat="53.34951159174835" lon="14.659291890577174"><ele>91.0</ele><time>2026-04-12T10:26:09Z</time></trkpt><trkpt lat="53.34958652136673" lon="14.659290676544796"><ele>91.0</ele><time>2026-04-12T10:26:15Z</time></trkpt><trkpt lat="53.34965293680353" lon="14.659289250078826"><ele>91.0</ele><time>2026-04-12T10:26:19Z</time></trkpt><trkpt lat="53.34972233278722" lon="14.659291024398337"><ele>91.0</ele><time>2026-04-12T10:26:25Z</time></trkpt><trkpt lat="53.349791344197385" lon="14.659267292772915"><ele>91.0</ele><time>2026-04-12T10:26:31Z</time></trkpt><trkpt lat="53.349858833360344" lon="14.659297718232112"><ele>90.28571428571429</ele><time>2026-04-12T10:26:39Z</time></trkpt><trkpt lat="53.34993887610467" lon="14.659313246800796"><ele>89.57142857142857</ele><time>2026-04-12T10:26:42.999Z</time></trkpt><trkpt lat="53.34999991142143" lon="14.659347354933235"><ele>88.85714285714286</ele><time>2026-04-12T10:26:46.999Z</time></trkpt><trkpt lat="53.35007196870472" lon="14.659320390963492"><ele>88.14285714285714</ele><time>2026-04-12T10:26:53.999Z</time></trkpt><trkpt lat="53.35013654332397" lon="14.65928357694036"><ele>87.42857142857143</ele><time>2026-04-12T10:26:58.999Z</time></trkpt><trkpt lat="53.35020742709502" lon="14.659297733820111"><ele>86.71428571428572</ele><time>2026-04-12T10:27:03.999Z</time></trkpt><trkpt lat="53.35027466661246" lon="14.659301578284271"><ele>86.0</ele><time>2026-04-12T10:27:08.999Z</time></trkpt><trkpt lat="53.35034485475251" lon="14.659277909829006"><ele>86.00000000000001</ele><time>2026-04-12T10:27:13.999Z</time></trkpt><trkpt lat="53.3504048941315" lon="14.6593431951411"><ele>86.0</ele><time>2026-04-12T10:27:19.999Z</time></trkpt><trkpt lat="53.35049139566782" lon="14.659384176618754"><ele>86.0</ele><time>2026-04-12T10:27:31.998Z</time></trkpt><trkpt lat="53.350574955374" lon="14.659410304778872"><ele>86.0</ele><time>2026-04-12T10:27:38.998Z</time></trkpt><trkpt lat="53.35062624266716" lon="14.659476109996742"><ele>86.0</ele><time>2026-04-12T10:27:44.998Z</time></trkpt><trkpt lat="53.350674436765146" lon="14.659551884183985"><ele>86.00000000000001</ele><time>2026-04-12T10:27:50.998Z</time></trkpt><trkpt lat="53.35073733180323" lon="14.659557329570534"><ele>86.0</ele><time>2026-04-12T10:28:01.998Z</time></trkpt><trkpt lat="53.35080103522984" lon="14.65953003839311"><ele>85.83333333333334</ele><time>2026-04-12T10:28:15Z</time></trkpt><trkpt lat="53.35082458942329" lon="14.659427880793466"><ele>85.66666666666667</ele><time>2026-04-12T10:28:24Z</time></trkpt><trkpt lat="53.35075925307334" lon="14.659388176183807"><ele>85.5</ele><time>2026-04-12T10:28:29Z</time></trkpt><trkpt lat="53.35082618324848" lon="14.659382669676551"><ele>85.33333333333333</ele><time>2026-04-12T10:28:42Z</time></trkpt><trkpt lat="53.35084991176019" lon="14.659485639966277"><ele>85.16666666666666</ele><time>2026-04-12T10:29:03.999Z</time></trkpt><trkpt lat="53.3509082355846" lon="14.65955651768239"><ele>85.0</ele><time>2026-04-12T10:29:11.999Z</time></trkpt><trkpt lat="53.3510435028894" lon="14.659588033557972"><ele>85.0</ele><time>2026-04-12T10:29:23.999Z</time></trkpt><trkpt lat="53.35113808525571" lon="14.659596960078108"><ele>85.0</ele><time>2026-04-12T10:29:29.999Z</time></trkpt><trkpt lat="53.351199660768785" lon="14.65953002410525"><ele>85.0</ele><time>2026-04-12T10:29:32.998Z</time></trkpt><trkpt lat="53.35122368044087" lon="14.659411902798885"><ele>85.0</ele><time>2026-04-12T10:29:36.998Z</time></trkpt><trkpt lat="53.35124119597348" lon="14.659278356130361"><ele>85.0</ele><time>2026-04-12T10:29:42.998Z</time></trkpt><trkpt lat="53.351221911247045" lon="14.659153525036416"><ele>85.0</ele><time>2026-04-12T10:29:50.998Z</time></trkpt><trkpt lat="53.35127058416925" lon="14.659063454946404"><ele>84.42857142857143</ele><time>2026-04-12T10:29:54.998Z</time></trkpt><trkpt lat="53.35128445466976" lon="14.658957643537327"><ele>83.85714285714285</ele><time>2026-04-12T10:29:58.998Z</time></trkpt><trkpt lat="53.351267262617455" lon="14.658837483377582"><ele>83.28571428571428</ele><time>2026-04-12T10:30:09.998Z</time></trkpt><trkpt lat="53.35120277177964" lon="14.658861731625603"><ele>82.71428571428572</ele><time>2026-04-12T10:30:17Z</time></trkpt><trkpt lat="53.35115556764411" lon="14.658937684646975"><ele>82.14285714285714</ele><time>2026-04-12T10:30:27Z</time></trkpt><trkpt lat="53.35110052478889" lon="14.659004203486036"><ele>81.57142857142857</ele><time>2026-04-12T10:30:31Z</time></trkpt><trkpt lat="53.351139321493434" lon="14.65888834086432"><ele>81.0</ele><time>2026-04-12T10:30:45Z</time></trkpt><trkpt lat="53.35120569507094" lon="14.658860002037823"><ele>81.0</ele><time>2026-04-12T10:30:52.999Z</time></trkpt><trkpt lat="53.3512688069106" lon="14.658874702462153"><ele>81.0</ele><time>2026-04-12T10:31:13.999Z</time></trkpt><trkpt lat="53.35137518890216" lon="14.6588338110755"><ele>81.0</ele><time>2026-04-12T10:31:21.999Z</time></trkpt><trkpt lat="53.35144948268822" lon="14.658822280205861"><ele>81.0</ele><time>2026-04-12T10:31:28.999Z</time></trkpt><trkpt lat="53.351520337567244" lon="14.658834304184035"><ele>81.0</ele><time>2026-04-12T10:31:32.999Z</time></trkpt><trkpt lat="53.351591340583354" lon="14.658815575534922"><ele>81.0</ele><time>2026-04-12T10:31:37.998Z</time></trkpt><trkpt lat="53.35165575730866" lon="14.658813964293284"><ele>80.28571428571429</ele><time>2026-04-12T10:31:44.998Z</time></trkpt><trkpt lat="53.351724553881965" lon="14.65882685066312"><ele>79.57142857142857</ele><time>2026-04-12T10:31:52.998Z</time></trkpt><trkpt lat="53.351783721033776" lon="14.658884101197097"><ele>78.85714285714286</ele><time>2026-04-12T10:31:59.998Z</time></trkpt><trkpt lat="53.35183688854529" lon="14.658953747596758"><ele>78.14285714285714</ele><time>2026-04-12T10:32:04.998Z</time></trkpt><trkpt lat="53.35189652369391" lon="14.65902597111793"><ele>77.42857142857143</ele><time>2026-04-12T10:32:10.998Z</time></trkpt><trkpt lat="53.35195355169352" lon="14.659083112532382"><ele>76.71428571428571</ele><time>2026-04-12T10:32:16.998Z</time></trkpt><trkpt lat="53.35200206808734" lon="14.659150379730827"><ele>76.0</ele><time>2026-04-12T10:32:21.997Z</time></trkpt><trkpt lat="53.35205271848393" lon="14.659218531147646"><ele>76.0</ele><time>2026-04-12T10:32:28Z</time></trkpt><trkpt lat="53.35209910777303" lon="14.659339325792052"><ele>76.0</ele><time>2026-04-12T10:32:34Z</time></trkpt><trkpt lat="53.35212467325081" lon="14.65946321757878"><ele>76.0</ele><time>2026-04-12T10:32:38Z</time></trkpt><trkpt lat="53.35217265019495" lon="14.659554375268687"><ele>76.0</ele><time>2026-04-12T10:32:43Z</time></trkpt><trkpt lat="53.35219599054829" lon="14.65965355844577"><ele>76.0</ele><time>2026-04-12T10:32:48Z</time></trkpt><trkpt lat="53.35223207156865" lon="14.659756789642252"><ele>76.0</ele><time>2026-04-12T10:32:53.999Z</time></trkpt><trkpt lat="53.35226667893008" lon="14.659845245324906"><ele>76.0</ele><time>2026-04-12T10:32:58.999Z</time></trkpt><trkpt lat="53.352325165182194" lon="14.659899358442878"><ele>76.0</ele><time>2026-04-12T10:33:03.999Z</time></trkpt><trkpt lat="53.35238140648611" lon="14.659948786151922"><ele>76.0</ele><time>2026-04-12T10:33:09.999Z</time></trkpt><trkpt lat="53.35243379427527" lon="14.660020913928047"><ele>76.0</ele><time>2026-04-12T10:33:16.999Z</time></trkpt><trkpt lat="53.35249190799716" lon="14.660070779772292"><ele>76.0</ele><time>2026-04-12T10:33:20.999Z</time></trkpt><trkpt lat="53.35254832265472" lon="14.660133450819444"><ele>76.0</ele><time>2026-04-12T10:33:26.999Z</time></trkpt><trkpt lat="53.35261724747269" lon="14.660197938334335"><ele>76.0</ele><time>2026-04-12T10:33:33.999Z</time></trkpt><trkpt lat="53.35267664419347" lon="14.660249630265719"><ele>76.0</ele><time>2026-04-12T10:33:38.999Z</time></trkpt><trkpt lat="53.35275321587946" lon="14.660296539047842"><ele>76.5</ele><time>2026-04-12T10:33:45.998Z</time></trkpt><trkpt lat="53.35283637875352" lon="14.66024964707732"><ele>77.0</ele><time>2026-04-12T10:33:49.998Z</time></trkpt><trkpt lat="53.35292050485965" lon="14.660248113654758"><ele>77.5</ele><time>2026-04-12T10:33:56.998Z</time></trkpt><trkpt lat="53.352987130668495" lon="14.660262589673888"><ele>78.0</ele><time>2026-04-12T10:34:08.998Z</time></trkpt><trkpt lat="53.353052925670305" lon="14.660245163753775"><ele>78.5</ele><time>2026-04-12T10:34:12.998Z</time></trkpt><trkpt lat="53.35311788873527" lon="14.66027705414808"><ele>79.0</ele><time>2026-04-12T10:34:19.998Z</time></trkpt><trkpt lat="53.35319875213863" lon="14.660260570612227"><ele>79.14285714285715</ele><time>2026-04-12T10:34:26.997Z</time></trkpt><trkpt lat="53.35326874033097" lon="14.660225683945255"><ele>79.28571428571429</ele><time>2026-04-12T10:34:33Z</time></trkpt><trkpt lat="53.35333646685291" lon="14.660259204904374"><ele>79.42857142857143</ele><time>2026-04-12T10:34:40Z</time></trkpt><trkpt lat="53.35337966962503" lon="14.660379511610596"><ele>79.57142857142858</ele><time>2026-04-12T10:34:47Z</time></trkpt><trkpt lat="53.3534422613888" lon="14.660414800842778"><ele>79.71428571428572</ele><time>2026-04-12T10:34:52Z</time></trkpt><trkpt lat="53.35348811434778" lon="14.660502756845126"><ele>79.85714285714286</ele><time>2026-04-12T10:34:58Z</time></trkpt><trkpt lat="53.353535493386474" lon="14.660584207544005"><ele>80.0</ele><time>2026-04-12T10:35:03.999Z</time></trkpt><trkpt lat="53.35356923068008" lon="14.660676250017193"><ele>80.0</ele><time>2026-04-12T10:35:08.999Z</time></trkpt><trkpt lat="53.35362944763756" lon="14.660724116920345"><ele>80.0</ele><time>2026-04-12T10:35:13.999Z</time></trkpt><trkpt lat="53.35370796570793" lon="14.66073787713375"><ele>80.0</ele><time>2026-04-12T10:35:19.999Z</time></trkpt><trkpt lat="53.35376272238003" lon="14.660814510131774"><ele>80.0</ele><time>2026-04-12T10:35:26.999Z</time></trkpt><trkpt lat="53.353843142087065" lon="14.660836937044886"><ele>80.0</ele><time>2026-04-12T10:35:32.999Z</time></trkpt><trkpt lat="53.35392179501097" lon="14.660736556851402"><ele>80.0</ele><time>2026-04-12T10:35:38.999Z</time></trkpt><trkpt lat="53.353981772742884" lon="14.660679540343933"><ele>79.57142857142857</ele><time>2026-04-12T10:35:46.999Z</time></trkpt><trkpt lat="53.35404454699" lon="14.660663208244195"><ele>79.14285714285714</ele><time>2026-04-12T10:35:51.998Z</time></trkpt><trkpt lat="53.35409572003458" lon="14.66057704704786"><ele>78.71428571428572</ele><time>2026-04-12T10:35:56.998Z</time></trkpt><trkpt lat="53.354151878841556" lon="14.66050524431247"><ele>78.28571428571428</ele><time>2026-04-12T10:36:03.998Z</time></trkpt><trkpt lat="53.35421038380414" lon="14.660451732074483"><ele>77.85714285714286</ele><time>2026-04-12T10:36:08.998Z</time></trkpt><trkpt lat="53.35427421956409" lon="14.66039064833581"><ele>77.42857142857143</ele><time>2026-04-12T10:36:14.998Z</time></trkpt><trkpt lat="53.35433164005653" lon="14.660442567360462"><ele>77.0</ele><time>2026-04-12T10:36:33.998Z</time></trkpt><trkpt lat="53.3543667094028" lon="14.660530570791462"><ele>77.0</ele><time>2026-04-12T10:36:39Z</time></trkpt><trkpt lat="53.35441943308741" lon="14.660593880234867"><ele>77.0</ele><time>2026-04-12T10:36:45Z</time></trkpt><trkpt lat="53.35448649536611" lon="14.660629368832515"><ele>77.0</ele><time>2026-04-12T10:36:49Z</time></trkpt><trkpt lat="53.35456144148234" lon="14.66056406772513"><ele>77.0</ele><time>2026-04-12T10:36:53Z</time></trkpt><trkpt lat="53.35463485603477" lon="14.66053279680938"><ele>77.0</ele><time>2026-04-12T10:36:58Z</time></trkpt><trkpt lat="53.35470140990244" lon="14.660500150145554"><ele>77.0</ele><time>2026-04-12T10:37:02.999Z</time></trkpt><trkpt lat="53.35477732058106" lon="14.660503354247552"><ele>77.0</ele><time>2026-04-12T10:37:11.999Z</time></trkpt><trkpt lat="53.35483548269249" lon="14.660461913187138"><ele>77.85714285714286</ele><time>2026-04-12T10:37:16.999Z</time></trkpt><trkpt lat="53.35490370375115" lon="14.660451813545043"><ele>78.71428571428572</ele><time>2026-04-12T10:37:34.999Z</time></trkpt><trkpt lat="53.35498099160862" lon="14.660444822391044"><ele>79.57142857142857</ele><time>2026-04-12T10:37:40.999Z</time></trkpt><trkpt lat="53.355058612428635" lon="14.660459015834633"><ele>80.42857142857143</ele><time>2026-04-12T10:37:48.999Z</time></trkpt><trkpt lat="53.35512135533915" lon="14.660475044605109"><ele>81.28571428571429</ele><time>2026-04-12T10:37:52.999Z</time></trkpt><trkpt lat="53.35518481693445" lon="14.660424669676953"><ele>82.14285714285714</ele><time>2026-04-12T10:37:57.998Z</time></trkpt><trkpt lat="53.35525228698465" lon="14.66043416380927"><ele>83.0</ele><time>2026-04-12T10:38:01.998Z</time></trkpt><trkpt lat="53.35530791320938" lon="14.660381194212944"><ele>83.0</ele><time>2026-04-12T10:38:10.998Z</time></trkpt><trkpt lat="53.35537623362796" lon="14.660380157274997"><ele>83.0</ele><time>2026-04-12T10:38:14.998Z</time></trkpt><trkpt lat="53.35544005238898" lon="14.6603510827566"><ele>83.0</ele><time>2026-04-12T10:38:19.998Z</time></trkpt><trkpt lat="53.35551343668274" lon="14.66035623005028"><ele>83.0</ele><time>2026-04-12T10:38:24.998Z</time></trkpt><trkpt lat="53.355584712538665" lon="14.66032654092338"><ele>83.0</ele><time>2026-04-12T10:38:29.998Z</time></trkpt><trkpt lat="53.35565262352933" lon="14.660273863310497"><ele>83.0</ele><time>2026-04-12T10:38:35.998Z</time></trkpt><trkpt lat="53.35571849467141" lon="14.66027370030866"><ele>83.0</ele><time>2026-04-12T10:38:41Z</time></trkpt><trkpt lat="53.35578516760941" lon="14.660256732768062"><ele>83.42857142857143</ele><time>2026-04-12T10:38:50Z</time></trkpt><trkpt lat="53.35585977606602" lon="14.660242649529373"><ele>83.85714285714286</ele><time>2026-04-12T10:38:56Z</time></trkpt><trkpt lat="53.35592261119446" lon="14.660230203224039"><ele>84.28571428571429</ele><time>2026-04-12T10:39:01Z</time></trkpt><trkpt lat="53.3559956986323" lon="14.660245714808918"><ele>84.71428571428572</ele><time>2026-04-12T10:39:08Z</time></trkpt><trkpt lat="53.35605356895558" lon="14.660318583618112"><ele>85.14285714285714</ele><time>2026-04-12T10:39:14.999Z</time></trkpt><trkpt lat="53.35612713560994" lon="14.660271685206192"><ele>85.57142857142858</ele><time>2026-04-12T10:39:17.999Z</time></trkpt><trkpt lat="53.3561938953841" lon="14.660284180353695"><ele>86.0</ele><time>2026-04-12T10:39:22.999Z</time></trkpt><trkpt lat="53.356256872887826" lon="14.660324651919339"><ele>86.00000000000001</ele><time>2026-04-12T10:39:28.999Z</time></trkpt><trkpt lat="53.35632126233802" lon="14.660334686078375"><ele>86.0</ele><time>2026-04-12T10:39:32.999Z</time></trkpt><trkpt lat="53.35637661476604" lon="14.660422151564616"><ele>86.0</ele><time>2026-04-12T10:39:37.999Z</time></trkpt><trkpt lat="53.35644582361718" lon="14.660438483487612"><ele>86.0</ele><time>2026-04-12T10:39:42.999Z</time></trkpt><trkpt lat="53.35648646650754" lon="14.66052858220526"><ele>86.0</ele><time>2026-04-12T10:39:50.999Z</time></trkpt><trkpt lat="53.35654061634463" lon="14.66060547046257"><ele>86.00000000000001</ele><time>2026-04-12T10:39:56.999Z</time></trkpt><trkpt lat="53.35658625480776" lon="14.660690789880002"><ele>86.0</ele><time>2026-04-12T10:40:03.999Z</time></trkpt><trkpt lat="53.35663937736445" lon="14.660761604595626"><ele>84.57142857142858</ele><time>2026-04-12T10:40:08.998Z</time></trkpt><trkpt lat="53.35670082789184" lon="14.660820887207521"><ele>83.14285714285714</ele><time>2026-04-12T10:40:14.998Z</time></trkpt><trkpt lat="53.35676249994225" lon="14.660860013507309"><ele>81.71428571428572</ele><time>2026-04-12T10:40:19.998Z</time></trkpt><trkpt lat="53.35683259442373" lon="14.660916226621513"><ele>80.28571428571429</ele><time>2026-04-12T10:40:25.998Z</time></trkpt><trkpt lat="53.356890751612994" lon="14.661001841601403"><ele>78.85714285714286</ele><time>2026-04-12T10:40:32.998Z</time></trkpt><trkpt lat="53.35696866097386" lon="14.661039501579038"><ele>77.42857142857143</ele><time>2026-04-12T10:40:37.998Z</time></trkpt><trkpt lat="53.35703106544784" lon="14.66106861633029"><ele>76.0</ele><time>2026-04-12T10:40:43.998Z</time></trkpt><trkpt lat="53.35709516557943" lon="14.66109965961879"><ele>76.85714285714285</ele><time>2026-04-12T10:40:49Z</time></trkpt><trkpt lat="53.35716551716278" lon="14.661137866106106"><ele>77.71428571428572</ele><time>2026-04-12T10:40:55Z</time></trkpt><trkpt lat="53.35724181979597" lon="14.661175812784368"><ele>78.57142857142857</ele><time>2026-04-12T10:41:01Z</time></trkpt><trkpt lat="53.3573149834093" lon="14.661197437404155"><ele>79.42857142857142</ele><time>2026-04-12T10:41:08Z</time></trkpt><trkpt lat="53.357388141649764" lon="14.661160537940125"><ele>80.28571428571428</ele><time>2026-04-12T10:41:14Z</time></trkpt><trkpt lat="53.35744935101194" lon="14.661111572163062"><ele>81.14285714285714</ele><time>2026-04-12T10:41:21Z</time></trkpt><trkpt lat="53.35751025929937" lon="14.661033401390933"><ele>82.0</ele><time>2026-04-12T10:41:26.999Z</time></trkpt><trkpt lat="53.35756936400404" lon="14.660961122963702"><ele>79.14285714285714</ele><time>2026-04-12T10:41:31.999Z</time></trkpt><trkpt lat="53.3576268581001" lon="14.660918051021554"><ele>76.28571428571428</ele><time>2026-04-12T10:41:36.999Z</time></trkpt><trkpt lat="53.35767655685636" lon="14.660832121049735"><ele>73.42857142857143</ele><time>2026-04-12T10:41:44.999Z</time></trkpt><trkpt lat="53.35771977583298" lon="14.660727351593817"><ele>70.57142857142857</ele><time>2026-04-12T10:41:50.999Z</time></trkpt><trkpt lat="53.35777065770862" lon="14.660650943710161"><ele>67.71428571428572</ele><time>2026-04-12T10:41:55.999Z</time></trkpt><trkpt lat="53.35781772892798" lon="14.66055276743342"><ele>64.85714285714286</ele><time>2026-04-12T10:42:01.999Z</time></trkpt><trkpt lat="53.35787124719039" lon="14.660495000331327"><ele>62.0</ele><time>2026-04-12T10:42:06.999Z</time></trkpt><trkpt lat="53.357912956331774" lon="14.660411113108708"><ele>62.0</ele><time>2026-04-12T10:42:11.999Z</time></trkpt><trkpt lat="53.357954054845294" lon="14.660319057803369"><ele>62.00000000000001</ele><time>2026-04-12T10:42:17.998Z</time></trkpt><trkpt lat="53.357996225570446" lon="14.660223531251415"><ele>62.0</ele><time>2026-04-12T10:42:24.998Z</time></trkpt><trkpt lat="53.35805073121504" lon="14.660153887512845"><ele>62.0</ele><time>2026-04-12T10:42:29.998Z</time></trkpt><trkpt lat="53.35809867554182" lon="14.660056940010163"><ele>62.00000000000001</ele><time>2026-04-12T10:42:35.998Z</time></trkpt><trkpt lat="53.358157961313225" lon="14.659985346339093"><ele>62.0</ele><time>2026-04-12T10:42:41.998Z</time></trkpt><trkpt lat="53.35821188588983" lon="14.659903858909404"><ele>62.0</ele><time>2026-04-12T10:42:47.998Z</time></trkpt><trkpt lat="53.358252965502004" lon="14.659810764535885"><ele>61.0</ele><time>2026-04-12T10:42:54Z</time></trkpt><trkpt lat="53.358283305548376" lon="14.659712840826652"><ele>60.00000000000001</ele><time>2026-04-12T10:43:01Z</time></trkpt><trkpt lat="53.35831771219243" lon="14.65961359338891"><ele>59.0</ele><time>2026-04-12T10:43:08Z</time></trkpt><trkpt lat="53.358370825183954" lon="14.659543615941026"><ele>58.0</ele><time>2026-04-12T10:43:14Z</time></trkpt><trkpt lat="53.35844269596405" lon="14.659504899204686"><ele>57.0</ele><time>2026-04-12T10:43:20Z</time></trkpt><trkpt lat="53.35851017875703" lon="14.659492502805822"><ele>56.0</ele><time>2026-04-12T10:43:26Z</time></trkpt><trkpt lat="53.35858012379259" lon="14.659484694876063"><ele>55.0</ele><time>2026-04-12T10:43:32.999Z</time></trkpt><trkpt lat="53.358651423231045" lon="14.659500938053213"><ele>54.99999999999999</ele><time>2026-04-12T10:43:37.999Z</time></trkpt><trkpt lat="53.35871952917437" lon="14.659487261255801"><ele>55.0</ele><time>2026-04-12T10:43:43.999Z</time></trkpt><trkpt lat="53.35878527753937" lon="14.659479161028496"><ele>55.0</ele><time>2026-04-12T10:43:48.999Z</time></trkpt><trkpt lat="53.35885104931067" lon="14.659462615900145"><ele>55.0</ele><time>2026-04-12T10:43:54.999Z</time></trkpt><trkpt lat="53.35892097832621" lon="14.659478008589481"><ele>55.0</ele><time>2026-04-12T10:44:00.999Z</time></trkpt><trkpt lat="53.35897916834391" lon="14.65953265978295"><ele>54.99999999999999</ele><time>2026-04-12T10:44:06.999Z</time></trkpt><trkpt lat="53.359045531572384" lon="14.659582925574576"><ele>55.0</ele><time>2026-04-12T10:44:11.999Z</time></trkpt><trkpt lat="53.35910767719418" lon="14.65954961860507"><ele>55.14285714285714</ele><time>2026-04-12T10:44:16.999Z</time></trkpt><trkpt lat="53.35917853956039" lon="14.659570518390783"><ele>55.285714285714285</ele><time>2026-04-12T10:44:23.998Z</time></trkpt><trkpt lat="53.35924984837662" lon="14.659567837653332"><ele>55.42857142857143</ele><time>2026-04-12T10:44:32.998Z</time></trkpt><trkpt lat="53.35931215271463" lon="14.65958956783175"><ele>55.57142857142857</ele><time>2026-04-12T10:44:37.998Z</time></trkpt><trkpt lat="53.35937495416541" lon="14.659622671364495"><ele>55.714285714285715</ele><time>2026-04-12T10:44:44.998Z</time></trkpt><trkpt lat="53.359448100454685" lon="14.659629901432885"><ele>55.857142857142854</ele><time>2026-04-12T10:44:51.998Z</time></trkpt><trkpt lat="53.3595217632481" lon="14.659626564496671"><ele>56.0</ele><time>2026-04-12T10:44:56.998Z</time></trkpt><trkpt lat="53.359593067216814" lon="14.659564289656805"><ele>56.0</ele><time>2026-04-12T10:45:09Z</time></trkpt><trkpt lat="53.35966162643247" lon="14.659567413643206"><ele>56.0</ele><time>2026-04-12T10:45:13Z</time></trkpt><trkpt lat="53.35972586458607" lon="14.659572561455144"><ele>56.0</ele><time>2026-04-12T10:45:18Z</time></trkpt><trkpt lat="53.359795109718426" lon="14.65954321347182"><ele>56.0</ele><time>2026-04-12T10:45:24Z</time></trkpt><trkpt lat="53.359859122721495" lon="14.659547871200383"><ele>56.0</ele><time>2026-04-12T10:45:31Z</time></trkpt><trkpt lat="53.3599322606509" lon="14.65950734596858"><ele>56.0</ele><time>2026-04-12T10:45:37Z</time></trkpt><trkpt lat="53.359998420618986" lon="14.659512940157514"><ele>56.0</ele><time>2026-04-12T10:45:44.999Z</time></trkpt><trkpt lat="53.36005566250942" lon="14.659447987702968"><ele>55.57142857142857</ele><time>2026-04-12T10:45:47.999Z</time></trkpt><trkpt lat="53.36012731223372" lon="14.659421534774856"><ele>55.14285714285714</ele><time>2026-04-12T10:45:52.999Z</time></trkpt><trkpt lat="53.36019315047197" lon="14.659409945237162"><ele>54.714285714285715</ele><time>2026-04-12T10:45:58.999Z</time></trkpt><trkpt lat="53.3602563705116" lon="14.659445271150108"><ele>54.285714285714285</ele><time>2026-04-12T10:46:07.999Z</time></trkpt><trkpt lat="53.36031218802393" lon="14.659501213462908"><ele>53.857142857142854</ele><time>2026-04-12T10:46:12.999Z</time></trkpt><trkpt lat="53.36035550810252" lon="14.659596714614953"><ele>53.42857142857143</ele><time>2026-04-12T10:46:21.999Z</time></trkpt><trkpt lat="53.36038957518315" lon="14.659688557932173"><ele>53.0</ele><time>2026-04-12T10:46:27.999Z</time></trkpt><trkpt lat="53.36042439693366" lon="14.659779857769067"><ele>53.0</ele><time>2026-04-12T10:46:33.998Z</time></trkpt><trkpt lat="53.360456288271344" lon="14.659900795924134"><ele>53.0</ele><time>2026-04-12T10:46:39.998Z</time></trkpt><trkpt lat="53.36047220928137" lon="14.66002583416396"><ele>53.0</ele><time>2026-04-12T10:46:46.998Z</time></trkpt><trkpt lat="53.3605027524762" lon="14.66012519537212"><ele>53.0</ele><time>2026-04-12T10:46:51.998Z</time></trkpt><trkpt lat="53.36052888631944" lon="14.660243879428949"><ele>53.0</ele><time>2026-04-12T10:46:59.998Z</time></trkpt><trkpt lat="53.36054088944348" lon="14.660348708468298"><ele>53.0</ele><time>2026-04-12T10:47:06Z</time></trkpt><trkpt lat="53.360578361567505" lon="14.66046219689556"><ele>53.0</ele><time>2026-04-12T10:47:14Z</time></trkpt><trkpt lat="53.36062286835733" lon="14.660544842318995"><ele>52.142857142857146</ele><time>2026-04-12T10:47:31Z</time></trkpt><trkpt lat="53.36066790962415" lon="14.660632498302105"><ele>51.285714285714285</ele><time>2026-04-12T10:47:37Z</time></trkpt><trkpt lat="53.36073298809797" lon="14.660665993845729"><ele>50.42857142857143</ele><time>2026-04-12T10:47:42Z</time></trkpt><trkpt lat="53.360804710293536" lon="14.660664189662384"><ele>49.57142857142857</ele><time>2026-04-12T10:47:47.999Z</time></trkpt><trkpt lat="53.36087117084028" lon="14.660684606359336"><ele>48.71428571428571</ele><time>2026-04-12T10:47:55.999Z</time></trkpt><trkpt lat="53.360936699525254" lon="14.66066375383743"><ele>47.857142857142854</ele><time>2026-04-12T10:48:04.999Z</time></trkpt><trkpt lat="53.3610076633333" lon="14.660693323566528"><ele>47.0</ele><time>2026-04-12T10:48:11.999Z</time></trkpt><trkpt lat="53.361056366357055" lon="14.660623506755131"><ele>47.0</ele><time>2026-04-12T10:48:19.999Z</time></trkpt><trkpt lat="53.36112589090467" lon="14.660635005192137"><ele>47.0</ele><time>2026-04-12T10:48:25.999Z</time></trkpt><trkpt lat="53.36119733944245" lon="14.660593685566537"><ele>47.0</ele><time>2026-04-12T10:48:31.998Z</time></trkpt><trkpt lat="53.36126057237401" lon="14.660592344767185"><ele>47.0</ele><time>2026-04-12T10:48:37.998Z</time></trkpt><trkpt lat="53.36132908524874" lon="14.660560049990112"><ele>47.0</ele><time>2026-04-12T10:48:43.998Z</time></trkpt><trkpt lat="53.36139637215907" lon="14.660534755121892"><ele>47.0</ele><time>2026-04-12T10:48:48.998Z</time></trkpt><trkpt lat="53.361462806673174" lon="14.660502875527639"><ele>47.0</ele><time>2026-04-12T10:48:53.998Z</time></trkpt><trkpt lat="53.36152980821527" lon="14.660520912598406"><ele>46.57142857142857</ele><time>2026-04-12T10:48:59.998Z</time></trkpt><trkpt lat="53.36159253931522" lon="14.660506874510931"><ele>46.14285714285714</ele><time>2026-04-12T10:49:05.998Z</time></trkpt><trkpt lat="53.361655927355535" lon="14.66051471656053"><ele>45.714285714285715</ele><time>2026-04-12T10:49:11Z</time></trkpt><trkpt lat="53.36172419666118" lon="14.660501833242154"><ele>45.285714285714285</ele><time>2026-04-12T10:49:18Z</time></trkpt><trkpt lat="53.36179517327297" lon="14.660502154400993"><ele>44.857142857142854</ele><time>2026-04-12T10:49:25Z</time></trkpt><trkpt lat="53.36186497058375" lon="14.660511283084947"><ele>44.42857142857143</ele><time>2026-04-12T10:49:31Z</time></trkpt><trkpt lat="53.36192862056198" lon="14.660520900623906"><ele>44.0</ele><time>2026-04-12T10:49:38Z</time></trkpt><trkpt lat="53.361997751637915" lon="14.660577134815417"><ele>44.0</ele><time>2026-04-12T10:49:45Z</time></trkpt><trkpt lat="53.362077307002174" lon="14.660565487557392"><ele>44.0</ele><time>2026-04-12T10:49:50.999Z</time></trkpt><trkpt lat="53.362131167126975" lon="14.660507422405532"><ele>44.0</ele><time>2026-04-12T10:49:53.999Z</time></trkpt><trkpt lat="53.36221140972513" lon="14.660492546048127"><ele>44.0</ele><time>2026-04-12T10:49:58.999Z</time></trkpt><trkpt lat="53.36228191690904" lon="14.660484554215696"><ele>44.0</ele><time>2026-04-12T10:50:06.999Z</time></trkpt><trkpt lat="53.36234381160637" lon="14.660463479717416"><ele>44.0</ele><time>2026-04-12T10:50:11.999Z</time></trkpt><trkpt lat="53.36241263673448" lon="14.660457270189674"><ele>44.0</ele><time>2026-04-12T10:50:17.999Z</time></trkpt><trkpt lat="53.36248513530796" lon="14.660464014247957"><ele>43.57142857142857</ele><time>2026-04-12T10:50:24.999Z</time></trkpt><trkpt lat="53.36254895488359" lon="14.660484927922079"><ele>43.14285714285714</ele><time>2026-04-12T10:50:31.998Z</time></trkpt><trkpt lat="53.36261794435433" lon="14.660524356251775"><ele>42.71428571428571</ele><time>2026-04-12T10:50:39.998Z</time></trkpt><trkpt lat="53.36268547164403" lon="14.660540642435814"><ele>42.285714285714285</ele><time>2026-04-12T10:50:45.998Z</time></trkpt><trkpt lat="53.36274799604572" lon="14.660565790865101"><ele>41.857142857142854</ele><time>2026-04-12T10:50:50.998Z</time></trkpt><trkpt lat="53.36282079277093" lon="14.660584945166855"><ele>41.42857142857142</ele><time>2026-04-12T10:50:56.998Z</time></trkpt><trkpt lat="53.362894226204325" lon="14.660609163675913"><ele>41.0</ele><time>2026-04-12T10:51:03.998Z</time></trkpt><trkpt lat="53.36295861874717" lon="14.660633850229036"><ele>40.99999999999999</ele><time>2026-04-12T10:51:09.998Z</time></trkpt><trkpt lat="53.363008983396824" lon="14.660704386534361"><ele>41.0</ele><time>2026-04-12T10:51:15.998Z</time></trkpt><trkpt lat="53.36307030477138" lon="14.660743317695811"><ele>41.0</ele><time>2026-04-12T10:51:22Z</time></trkpt><trkpt lat="53.36313317212271" lon="14.660779217728095"><ele>41.0</ele><time>2026-04-12T10:51:29Z</time></trkpt><trkpt lat="53.36320386567054" lon="14.660822293268582"><ele>41.0</ele><time>2026-04-12T10:51:34Z</time></trkpt><trkpt lat="53.36327390690223" lon="14.660830009721769"><ele>40.99999999999999</ele><time>2026-04-12T10:51:40Z</time></trkpt><trkpt lat="53.36334293753287" lon="14.660829134600666"><ele>41.0</ele><time>2026-04-12T10:51:45Z</time></trkpt><trkpt lat="53.36340599721783" lon="14.660853482256062"><ele>40.99999999999999</ele><time>2026-04-12T10:51:51.999Z</time></trkpt><trkpt lat="53.3634719854642" lon="14.66083232727624"><ele>41.0</ele><time>2026-04-12T10:51:59.999Z</time></trkpt><trkpt lat="53.36353801190517" lon="14.660826095562335"><ele>41.0</ele><time>2026-04-12T10:52:05.999Z</time></trkpt><trkpt lat="53.36360334930988" lon="14.660806267753998"><ele>41.0</ele><time>2026-04-12T10:52:11.999Z</time></trkpt><trkpt lat="53.36368092144123" lon="14.660823071386565"><ele>41.0</ele><time>2026-04-12T10:52:18.999Z</time></trkpt><trkpt lat="53.36374492753205" lon="14.660808749832508"><ele>40.99999999999999</ele><time>2026-04-12T10:52:24.999Z</time></trkpt><trkpt lat="53.36381392674513" lon="14.660808939010936"><ele>41.0</ele><time>2026-04-12T10:52:29.999Z</time></trkpt><trkpt lat="53.36388397574863" lon="14.66080358678222"><ele>40.857142857142854</ele><time>2026-04-12T10:52:35.999Z</time></trkpt><trkpt lat="53.363959745406966" lon="14.66080969147998"><ele>40.714285714285715</ele><time>2026-04-12T10:52:41.998Z</time></trkpt><trkpt lat="53.36402838864583" lon="14.660785587516266"><ele>40.57142857142857</ele><time>2026-04-12T10:52:48.998Z</time></trkpt><trkpt lat="53.36409271854446" lon="14.660803263989632"><ele>40.42857142857143</ele><time>2026-04-12T10:52:53.998Z</time></trkpt><trkpt lat="53.364156127629165" lon="14.6607929099127"><ele>40.285714285714285</ele><time>2026-04-12T10:52:58.998Z</time></trkpt><trkpt lat="53.36422111948661" lon="14.66079018091656"><ele>40.14285714285714</ele><time>2026-04-12T10:53:04.998Z</time></trkpt><trkpt lat="53.364289796534216" lon="14.660794046801312"><ele>40.0</ele><time>2026-04-12T10:53:11.998Z</time></trkpt><trkpt lat="53.36435895554454" lon="14.660800208237672"><ele>40.0</ele><time>2026-04-12T10:53:16.998Z</time></trkpt><trkpt lat="53.36442926708468" lon="14.66081450230691"><ele>40.0</ele><time>2026-04-12T10:53:21.998Z</time></trkpt><trkpt lat="53.36449576144523" lon="14.66080824820717"><ele>40.0</ele><time>2026-04-12T10:53:28Z</time></trkpt><trkpt lat="53.364569933396695" lon="14.660782185846017"><ele>40.0</ele><time>2026-04-12T10:53:36Z</time></trkpt><trkpt lat="53.364634242667435" lon="14.660793228710265"><ele>40.0</ele><time>2026-04-12T10:53:41Z</time></trkpt><trkpt lat="53.36469837702192" lon="14.66080238452709"><ele>40.0</ele><time>2026-04-12T10:53:48Z</time></trkpt><trkpt lat="53.364769921377516" lon="14.660800809842327"><ele>40.0</ele><time>2026-04-12T10:53:56Z</time></trkpt><trkpt lat="53.36484078050816" lon="14.660840211102503"><ele>39.42857142857143</ele><time>2026-04-12T10:54:02.999Z</time></trkpt><trkpt lat="53.36490524667254" lon="14.660864305565351"><ele>38.85714285714286</ele><time>2026-04-12T10:54:07.999Z</time></trkpt><trkpt lat="53.364961742715195" lon="14.660914264993208"><ele>38.28571428571429</ele><time>2026-04-12T10:54:12.999Z</time></trkpt><trkpt lat="53.365051740301794" lon="14.660918950240902"><ele>37.714285714285715</ele><time>2026-04-12T10:54:25.999Z</time></trkpt><trkpt lat="53.36511256889354" lon="14.660950540903698"><ele>37.142857142857146</ele><time>2026-04-12T10:54:29.999Z</time></trkpt><trkpt lat="53.36519429697605" lon="14.660958717035609"><ele>36.57142857142858</ele><time>2026-04-12T10:54:34.999Z</time></trkpt><trkpt lat="53.36526194125936" lon="14.660993678423203"><ele>36.0</ele><time>2026-04-12T10:54:41.999Z</time></trkpt><trkpt lat="53.365324574341564" lon="14.661055495854024"><ele>36.00000000000001</ele><time>2026-04-12T10:54:48.998Z</time></trkpt><trkpt lat="53.36538293879513" lon="14.661109035111336"><ele>36.0</ele><time>2026-04-12T10:54:54.998Z</time></trkpt><trkpt lat="53.36544647822972" lon="14.661148365636393"><ele>36.0</ele><time>2026-04-12T10:55:00.998Z</time></trkpt><trkpt lat="53.36549576897538" lon="14.6610757477335"><ele>36.0</ele><time>2026-04-12T10:55:19.998Z</time></trkpt><trkpt lat="53.3655611747212" lon="14.661040953945124"><ele>36.0</ele><time>2026-04-12T10:55:26.998Z</time></trkpt><trkpt lat="53.365633155554484" lon="14.66102238788632"><ele>36.00000000000001</ele><time>2026-04-12T10:55:33Z</time></trkpt><trkpt lat="53.36569044110002" lon="14.661066814538573"><ele>36.0</ele><time>2026-04-12T10:55:38Z</time></trkpt><trkpt lat="53.36572606425299" lon="14.661155307340975"><ele>35.28571428571429</ele><time>2026-04-12T10:55:43Z</time></trkpt><trkpt lat="53.3657620951935" lon="14.661241883525268"><ele>34.57142857142857</ele><time>2026-04-12T10:55:48Z</time></trkpt><trkpt lat="53.36581335870878" lon="14.661324781076164"><ele>33.85714285714286</ele><time>2026-04-12T10:55:54Z</time></trkpt><trkpt lat="53.36587342325697" lon="14.66136332005201"><ele>33.142857142857146</ele><time>2026-04-12T10:56:00.999Z</time></trkpt><trkpt lat="53.36594550635677" lon="14.66133879991751"><ele>32.42857142857143</ele><time>2026-04-12T10:56:05.999Z</time></trkpt><trkpt lat="53.36600346601981" lon="14.661294344381162"><ele>31.714285714285715</ele><time>2026-04-12T10:56:11.999Z</time></trkpt><trkpt lat="53.366073437658" lon="14.661244286769284"><ele>31.0</ele><time>2026-04-12T10:56:19.999Z</time></trkpt><trkpt lat="53.36614065052784" lon="14.661202112624833"><ele>31.0</ele><time>2026-04-12T10:56:25.999Z</time></trkpt><trkpt lat="53.36621145067826" lon="14.661188015024104"><ele>31.000000000000004</ele><time>2026-04-12T10:56:31.999Z</time></trkpt><trkpt lat="53.36627358186624" lon="14.661162983220168"><ele>31.0</ele><time>2026-04-12T10:56:36.999Z</time></trkpt><trkpt lat="53.36634569236562" lon="14.661137950126918"><ele>31.0</ele><time>2026-04-12T10:56:43.999Z</time></trkpt><trkpt lat="53.36640377193708" lon="14.66107967063141"><ele>31.000000000000004</ele><time>2026-04-12T10:56:49.998Z</time></trkpt><trkpt lat="53.36647181376058" lon="14.661048599697883"><ele>31.0</ele><time>2026-04-12T10:56:56.998Z</time></trkpt><trkpt lat="53.36653488623683" lon="14.661056672472489"><ele>31.0</ele><time>2026-04-12T10:57:02.998Z</time></trkpt><trkpt lat="53.3666016081499" lon="14.661087563096109"><ele>31.0</ele><time>2026-04-12T10:57:08.998Z</time></trkpt><trkpt lat="53.36666759868163" lon="14.661107586577586"><ele>31.000000000000004</ele><time>2026-04-12T10:57:15.998Z</time></trkpt><trkpt lat="53.366730270061595" lon="14.661089055474573"><ele>31.0</ele><time>2026-04-12T10:57:23.998Z</time></trkpt><trkpt lat="53.366799518205525" lon="14.661055883831981"><ele>31.0</ele><time>2026-04-12T10:57:29.998Z</time></trkpt><trkpt lat="53.36687215788133" lon="14.661049035640419"><ele>31.000000000000004</ele><time>2026-04-12T10:57:34.999Z</time></trkpt><trkpt lat="53.36693115048046" lon="14.66097853591981"><ele>31.0</ele><time>2026-04-12T10:57:41.999Z</time></trkpt><trkpt lat="53.366996718396614" lon="14.660948082773853"><ele>31.0</ele><time>2026-04-12T10:57:46.999Z</time></trkpt><trkpt lat="53.36707018259156" lon="14.66095634062063"><ele>31.0</ele><time>2026-04-12T10:57:53.999Z</time></trkpt><trkpt lat="53.36713749624935" lon="14.660979028491594"><ele>31.000000000000004</ele><time>2026-04-12T10:57:58.999Z</time></trkpt><trkpt lat="53.367205341893865" lon="14.660992285745888"><ele>31.0</ele><time>2026-04-12T10:58:04.999Z</time></trkpt><trkpt lat="53.36727439776161" lon="14.660992890650286"><ele>31.0</ele><time>2026-04-12T10:58:10.999Z</time></trkpt><trkpt lat="53.367339297586305" lon="14.66100488999402"><ele>31.000000000000004</ele><time>2026-04-12T10:58:15.999Z</time></trkpt><trkpt lat="53.367405689687004" lon="14.66101530609727"><ele>31.0</ele><time>2026-04-12T10:58:21.999Z</time></trkpt><trkpt lat="53.367472014105964" lon="14.661057612446612"><ele>31.0</ele><time>2026-04-12T10:58:27.999Z</time></trkpt><trkpt lat="53.367535847754304" lon="14.661031734343865"><ele>30.857142857142858</ele><time>2026-04-12T10:58:33.999Z</time></trkpt><trkpt lat="53.36758454464599" lon="14.661112664620816"><ele>30.714285714285715</ele><time>2026-04-12T10:58:39.999Z</time></trkpt><trkpt lat="53.36766109463882" lon="14.661148414213514"><ele>30.571428571428573</ele><time>2026-04-12T10:58:47.999Z</time></trkpt><trkpt lat="53.367707730386584" lon="14.661223823476108"><ele>30.42857142857143</ele><time>2026-04-12T10:58:53.998Z</time></trkpt><trkpt lat="53.36774152417012" lon="14.66131440638098"><ele>30.285714285714285</ele><time>2026-04-12T10:58:57.998Z</time></trkpt><trkpt lat="53.367779979141496" lon="14.66141763819037"><ele>30.142857142857146</ele><time>2026-04-12T10:59:03.998Z</time></trkpt><trkpt lat="53.36784172223822" lon="14.661470211148574"><ele>30.0</ele><time>2026-04-12T10:59:09.998Z</time></trkpt><trkpt lat="53.36790422770688" lon="14.66154506257541"><ele>29.857142857142858</ele><time>2026-04-12T10:59:13.998Z</time></trkpt><trkpt lat="53.36791214485343" lon="14.661663718610225"><ele>29.714285714285715</ele><time>2026-04-12T10:59:19.998Z</time></trkpt><trkpt lat="53.367960696064166" lon="14.661765037780084"><ele>29.571428571428573</ele><time>2026-04-12T10:59:25.998Z</time></trkpt><trkpt lat="53.36794563402953" lon="14.66187415357636"><ele>29.42857142857143</ele><time>2026-04-12T10:59:29.998Z</time></trkpt><trkpt lat="53.367942574514956" lon="14.66198030627393"><ele>29.285714285714285</ele><time>2026-04-12T10:59:44Z</time></trkpt><trkpt lat="53.367960628350566" lon="14.662093429989048"><ele>29.142857142857146</ele><time>2026-04-12T10:59:54Z</time></trkpt><trkpt lat="53.36796547580795" lon="14.661980854107282"><ele>29.000000000000004</ele><time>2026-04-12T11:00:50.999Z</time></trkpt><trkpt lat="53.36795866722566" lon="14.661760918968263"><ele>29.0</ele><time>2026-04-12T11:01:20.998Z</time></trkpt><trkpt lat="53.36812084970319" lon="14.661603227731208"><ele>29.0</ele><time>2026-04-12T11:01:21.998Z</time></trkpt><trkpt lat="53.3680501823445" lon="14.661643314776319"><ele>29.0</ele><time>2026-04-12T11:02:09.192Z</time></trkpt><trkpt lat="53.36797780764335" lon="14.661831833055484"><ele>29.0</ele><time>2026-04-12T11:02:14.423Z</time></trkpt><trkpt lat="53.367938166774984" lon="14.661933303326629"><ele>29.0</ele><time>2026-04-12T11:02:22.091Z</time></trkpt><trkpt lat="53.367704684468016" lon="14.661896889493798"><ele>29.0</ele><time>2026-04-12T11:02:28.505Z</time></trkpt><trkpt lat="53.36807723676752" lon="14.661977165352248"><ele>30.0</ele><time>2026-04-12T11:02:43.957Z</time></trkpt><trkpt lat="53.36794859316613" lon="14.662004831072112"><ele>31.0</ele><time>2026-04-12T11:02:51.272Z</time></trkpt><trkpt lat="53.367528833348196" lon="14.662026257220509"><ele>31.0</ele><time>2026-04-12T11:02:54.996Z</time></trkpt><trkpt lat="53.36788044030793" lon="14.662023843300153"><ele>31.0</ele><time>2026-04-12T11:03:25.515Z</time></trkpt><trkpt lat="53.367646247475385" lon="14.66166060101204"><ele>31.0</ele><time>2026-04-12T11:05:34.79Z</time></trkpt><trkpt lat="53.367839791225045" lon="14.661941867435946"><ele>31.0</ele><time>2026-04-12T11:05:36.096Z</time></trkpt><trkpt lat="53.36775473041919" lon="14.662159107707739"><ele>31.0</ele><time>2026-04-12T11:06:00Z</time></trkpt><trkpt lat="53.36780432956039" lon="14.661982503225792"><ele>31.0</ele><time>2026-04-12T11:06:06Z</time></trkpt><trkpt lat="53.36788895052104" lon="14.661935637761163"><ele>31.000000000000004</ele><time>2026-04-12T11:06:51.924Z</time></trkpt><trkpt lat="53.36793079935089" lon="14.662022298017996"><ele>31.0</ele><time>2026-04-12T11:07:08.999Z</time></trkpt><trkpt lat="53.367935080086376" lon="14.662143502483243"><ele>31.0</ele><time>2026-04-12T11:07:12.999Z</time></trkpt><trkpt lat="53.367936951171366" lon="14.662256661643424"><ele>31.000000000000004</ele><time>2026-04-12T11:07:21.999Z</time></trkpt><trkpt lat="53.36790503276813" lon="14.662358879317974"><ele>31.0</ele><time>2026-04-12T11:07:29.998Z</time></trkpt><trkpt lat="53.36785711216204" lon="14.662438790026451"><ele>31.0</ele><time>2026-04-12T11:07:35.998Z</time></trkpt><trkpt lat="53.36778938134258" lon="14.662489694594242"><ele>31.0</ele><time>2026-04-12T11:07:43.998Z</time></trkpt><trkpt lat="53.36772591753214" lon="14.662544028555281"><ele>31.000000000000004</ele><time>2026-04-12T11:07:50.998Z</time></trkpt><trkpt lat="53.367671761660134" lon="14.662606242413668"><ele>31.0</ele><time>2026-04-12T11:07:57.998Z</time></trkpt><trkpt lat="53.367597589099546" lon="14.662662227975106"><ele>31.0</ele><time>2026-04-12T11:08:04Z</time></trkpt><trkpt lat="53.36757100144665" lon="14.662758919032331"><ele>31.000000000000004</ele><time>2026-04-12T11:08:10Z</time></trkpt><trkpt lat="53.36751840085887" lon="14.662832919244869"><ele>31.0</ele><time>2026-04-12T11:08:19Z</time></trkpt><trkpt lat="53.367503905671015" lon="14.66293903854739"><ele>31.0</ele><time>2026-04-12T11:08:27Z</time></trkpt><trkpt lat="53.36744036338832" lon="14.662973866745164"><ele>31.0</ele><time>2026-04-12T11:08:34Z</time></trkpt><trkpt lat="53.36738709866684" lon="14.66304592210002"><ele>31.000000000000004</ele><time>2026-04-12T11:08:39.999Z</time></trkpt><trkpt lat="53.36736824814724" lon="14.663149982258819"><ele>31.0</ele><time>2026-04-12T11:08:44.999Z</time></trkpt><trkpt lat="53.36733376102764" lon="14.66325414205051"><ele>31.0</ele><time>2026-04-12T11:08:57.999Z</time></trkpt><trkpt lat="53.36728901616433" lon="14.663344961804578"><ele>31.000000000000004</ele><time>2026-04-12T11:09:06.999Z</time></trkpt><trkpt lat="53.36724488496211" lon="14.663433154860556"><ele>31.0</ele><time>2026-04-12T11:09:14.999Z</time></trkpt><trkpt lat="53.36718986685193" lon="14.66350932085507"><ele>31.0</ele><time>2026-04-12T11:09:21.999Z</time></trkpt><trkpt lat="53.367135325293745" lon="14.663588486530896"><ele>31.0</ele><time>2026-04-12T11:09:28.998Z</time></trkpt><trkpt lat="53.367077964022165" lon="14.663648615774344"><ele>32.0</ele><time>2026-04-12T11:09:33.998Z</time></trkpt><trkpt lat="53.36703064460509" lon="14.663719117592994"><ele>32.0</ele><time>2026-04-12T11:09:40.998Z</time></trkpt><trkpt lat="53.36699289069574" lon="14.663827055701118"><ele>32.0</ele><time>2026-04-12T11:09:46.998Z</time></trkpt><trkpt lat="53.36695386027213" lon="14.663910048329875"><ele>32.0</ele><time>2026-04-12T11:09:51.998Z</time></trkpt></trkseg></trk></gpx>